SondeTracker

Meteorological Radiosondes Database

Operations

Sounding was ended - last measurement: 2022-12-07 01:47:11z

MAP
About Radiosonde

Number: D22037099 (22037099)

Launch Site: Blacksburg [VA] (US)

Type: DFM17

AUX: NO

Frequency: 404.010 MHz

Max Speed: 280 km/h at 33936 m

Average Speed: 99.24 km/h

Max Altitude: 33991 m

Average Ascent Speed: 5.17 m/s

Average Descent Speed: 10.67 m/s

Status: UNKNOWN

Status Changes
Launch Site Type AUX Frequency Status Finder Landing Point Description Changes made by
APRS Statistics

Received Frames: 883

First Frame [UTC]: 2022-12-06 23:14:41z

Last Frame [UTC]: 2022-12-07 01:47:11z

Receivers: K4KDR-12, KG4IFE-1, W4DEX-14, W4KZK-14

Flight Time: 02:32:30 h

Distance From First Measurement: 230.10 km

Nearest City: Petersburg [VA] (US) [44.09 km]

Nearest Hunter: [0.00 km]

Ground Altitude: 70 m

Distance from QTH: 0.00 km

APRS Data
Receiver Number Date/Time [UTC] φ λ Course [°] Speed [km/h] Altitude [m] Description
K4KDR-12D220370992022-12-07 01:47:1136.9927-77.811774412438Clb=-5.3m/s t=5.2C h=-1.0% p=-1.0hPa 404.010 MHz Type=DFM17 ser=22037099 Radiosonde
K4KDR-12D220370992022-12-07 01:46:1036.9921-77.814373392529Clb=-4.3m/s t=5.6C h=-1.0% p=-1.0hPa 404.010 MHz Type=DFM17 ser=22037099 Radiosonde
K4KDR-12D220370992022-12-07 01:45:0936.9896-77.823466442835Clb=-4.1m/s t=3.6C h=-1.0% p=-1.0hPa 404.010 MHz Type=DFM17 ser=22037099 Radiosonde
K4KDR-12D220370992022-12-07 01:44:0836.9861-77.830660503109Clb=-6.0m/s t=1.9C h=-1.0% p=-1.0hPa 404.010 MHz Type=DFM17 ser=22037099 Radiosonde
K4KDR-12D220370992022-12-07 01:43:0736.983-77.843479593532Clb=-5.0m/s t=-0.8C h=-1.0% p=-1.0hPa 404.010 MHz Type=DFM17 ser=22037099 Radiosonde
K4KDR-12D220370992022-12-07 01:42:0636.9818-77.85382633791Clb=-4.9m/s t=-2.2C h=-1.0% p=-1.0hPa 404.010 MHz Type=DFM17 ser=22037099 Radiosonde
K4KDR-12D220370992022-12-07 01:41:0536.9806-77.867283654144Clb=-4.8m/s t=-4.4C h=-1.0% p=-1.0hPa 404.010 MHz Type=DFM17 ser=22037099 Radiosonde
K4KDR-12D220370992022-12-07 01:40:0436.9801-77.875585594345Clb=-4.7m/s t=-273.0C h=-1.0% p=-1.0hPa 404.010 MHz Type=DFM17 ser=22037099 Radiosonde
K4KDR-12D220370992022-12-07 01:39:0336.9791-77.887786694631Clb=-5.0m/s t=-7.2C h=-1.0% p=-1.0hPa 404.010 MHz Type=DFM17 ser=22037099 Radiosonde
K4KDR-12D220370992022-12-07 01:38:0236.9793-77.898692724870Clb=-4.9m/s t=-9.0C h=-1.0% p=-1.0hPa 404.010 MHz Type=DFM17 ser=22037099 Radiosonde
K4KDR-12D220370992022-12-07 01:37:0136.9807-77.921597805337Clb=-4.7m/s t=-11.3C h=-1.0% p=-1.0hPa 404.010 MHz Type=DFM17 ser=22037099 Radiosonde
W4DEX-14D220370992022-12-07 01:36:0736.9812-77.926397815429Clb=-4.7m/s Type=DFM17 ser=[BC]22037099 Details on http://radiosondy.info
K4KDR-12D220370992022-12-07 01:36:0036.9817-77.931398785521Clb=-4.8m/s t=-12.6C h=-1.0% p=-1.0hPa 404.010 MHz Type=DFM17 ser=22037099 Radiosonde
W4DEX-14D220370992022-12-07 01:35:4536.9817-77.9318100785535Clb=-4.7m/s Type=DFM17 ser=[BC]22037099 Details on http://radiosondy.info
W4DEX-14D220370992022-12-07 01:35:2036.9825-77.937899745659Clb=-5.1m/s Type=DFM17 ser=[BC]22037099 Details on http://radiosondy.info
K4KDR-12D220370992022-12-07 01:34:5936.9834-77.9436102725779Clb=-5.2m/s t=-14.2C h=-1.0% p=-1.0hPa 404.010 MHz Type=DFM17 ser=22037099 Radiosonde
W4DEX-14D220370992022-12-07 01:34:1336.9848-77.952897705995Clb=-5.3m/s Type=DFM17 ser=[BC]22037099 Details on http://radiosondy.info
W4DEX-14D220370992022-12-07 01:33:5836.9854-77.9561105746066Clb=-5.2m/s Type=DFM17 ser=[BC]22037099 Details on http://radiosondy.info
W4DEX-14D220370992022-12-07 01:33:4236.9861-77.9596104766155Clb=-5.3m/s Type=DFM17 ser=[BC]22037099 Details on http://radiosondy.info
W4DEX-14D220370992022-12-07 01:33:2736.9869-77.963106726238Clb=-5.2m/s Type=DFM17 ser=[BC]22037099 Details on http://radiosondy.info
W4DEX-14D220370992022-12-07 01:33:1136.9876-77.9666106696323Clb=-5.3m/s Type=DFM17 ser=[BC]22037099 Details on http://radiosondy.info
K4KDR-12D220370992022-12-07 01:32:5736.9882-77.9696106676396Clb=-5.1m/s t=-18.0C h=-1.0% p=-1.0hPa 404.010 MHz Type=DFM17 ser=22037099 Radiosonde
W4DEX-14D220370992022-12-07 01:32:5636.9882-77.9696107636401Clb=-5.1m/s Type=DFM17 ser=[BC]22037099 Details on http://radiosondy.info
W4DEX-14D220370992022-12-07 01:32:4136.9887-77.9725104636480Clb=-5.2m/s Type=DFM17 ser=[BC]22037099 Details on http://radiosondy.info
W4DEX-14D220370992022-12-07 01:32:2636.9892-77.9754102616563Clb=-5.6m/s Type=DFM17 ser=[BC]22037099 Details on http://radiosondy.info
W4DEX-14D220370992022-12-07 01:32:1136.9896-77.978299616644Clb=-5.2m/s Type=DFM17 ser=[BC]22037099 Details on http://radiosondy.info
W4DEX-14D220370992022-12-07 01:31:5636.99-77.9811100656726Clb=-5.4m/s Type=DFM17 ser=[BC]22037099 Details on http://radiosondy.info
W4DEX-14D220370992022-12-07 01:31:4136.9904-77.98498696810Clb=-5.7m/s Type=DFM17 ser=[BC]22037099 Details on http://radiosondy.info
W4DEX-14D220370992022-12-07 01:31:2636.9908-77.9871102706893Clb=-5.2m/s Type=DFM17 ser=[BC]22037099 Details on http://radiosondy.info
K4KDR-12D220370992022-12-07 01:30:5536.9916-77.9937100677066Clb=-5.8m/s t=-22.7C h=-1.0% p=-1.0hPa 404.010 MHz Type=DFM17 ser=22037099 Radiosonde
W4DEX-14D220370992022-12-07 01:30:2836.9924-77.999499767280Clb=-5.4m/s Type=DFM17 ser=[BC]22037099 Details on http://radiosondy.info
W4DEX-14D220370992022-12-07 01:30:0836.9931-78.004101807328Clb=-5.2m/s Type=DFM17 ser=[BC]22037099 Details on http://radiosondy.info
K4KDR-12D220370992022-12-07 01:29:5436.9938-78.0079102807405Clb=-5.7m/s t=-25.5C h=-1.0% p=-1.0hPa 404.010 MHz Type=DFM17 ser=22037099 Radiosonde
W4DEX-14D220370992022-12-07 01:29:5336.9938-78.0076101787405Clb=-5.6m/s Type=DFM17 ser=[BC]22037099 Details on http://radiosondy.info
W4DEX-14D220370992022-12-07 01:29:3836.9944-78.0112103787488Clb=-5.4m/s Type=DFM17 ser=[BC]22037099 Details on http://radiosondy.info
W4DEX-14D220370992022-12-07 01:29:2336.995-78.0148100767570Clb=-5.2m/s Type=DFM17 ser=[BC]22037099 Details on http://radiosondy.info
W4DEX-14D220370992022-12-07 01:29:0836.9955-78.0183102767652Clb=-5.6m/s Type=DFM17 ser=[BC]22037099 Details on http://radiosondy.info
W4DEX-14D220370992022-12-07 01:28:5336.996-78.0218101727735Clb=-5.7m/s Type=DFM17 ser=[BC]22037099 Details on http://radiosondy.info
K4KDR-12D220370992022-12-07 01:28:5236.996-78.0223101727740Clb=-5.2m/s t=-28.3C h=-1.0% p=-1.0hPa 404.010 MHz Type=DFM17 ser=22037099 Radiosonde
W4DEX-14D220370992022-12-07 01:28:3836.9965-78.0251103707817Clb=-5.6m/s Type=DFM17 ser=[BC]22037099 Details on http://radiosondy.info
W4DEX-14D220370992022-12-07 01:28:2336.9969-78.028399677901Clb=-5.3m/s Type=DFM17 ser=[BC]22037099 Details on http://radiosondy.info
W4DEX-14D220370992022-12-07 01:28:0836.9974-78.0314103697986Clb=-6.1m/s Type=DFM17 ser=[BC]22037099 Details on http://radiosondy.info
W4DEX-14D220370992022-12-07 01:27:5336.9978-78.0345100728072Clb=-5.5m/s Type=DFM17 ser=[BC]22037099 Details on http://radiosondy.info
K4KDR-12D220370992022-12-07 01:27:5136.9979-78.0354100748089Clb=-6.1m/s t=-30.4C h=-1.0% p=-1.0hPa 404.010 MHz Type=DFM17 ser=22037099 Radiosonde
W4DEX-14D220370992022-12-07 01:27:3836.9984-78.0379107748159Clb=-5.7m/s Type=DFM17 ser=[BC]22037099 Details on http://radiosondy.info
W4DEX-14D220370992022-12-07 01:27:2336.9991-78.0412109788247Clb=-6.5m/s Type=DFM17 ser=[BC]22037099 Details on http://radiosondy.info
W4DEX-14D220370992022-12-07 01:27:0837-78.0447109768340Clb=-5.9m/s Type=DFM17 ser=[BC]22037099 Details on http://radiosondy.info
W4DEX-14D220370992022-12-07 01:26:5337.0007-78.0481108808427Clb=-6.0m/s Type=DFM17 ser=[BC]22037099 Details on http://radiosondy.info
K4KDR-12D220370992022-12-07 01:26:5037.001-78.0493107768450Clb=-6.1m/s t=-33.7C h=-1.0% p=-1.0hPa 404.010 MHz Type=DFM17 ser=22037099 Radiosonde
W4DEX-14D220370992022-12-07 01:26:3837.0016-78.0517105858516Clb=-5.9m/s Type=DFM17 ser=[BC]22037099 Details on http://radiosondy.info
W4DEX-14D220370992022-12-07 01:26:2337.0026-78.0555113838613Clb=-6.2m/s Type=DFM17 ser=[BC]22037099 Details on http://radiosondy.info
W4DEX-14D220370992022-12-07 01:26:0837.0036-78.0591112878709Clb=-6.2m/s Type=DFM17 ser=[BC]22037099 Details on http://radiosondy.info
W4DEX-14D220370992022-12-07 01:25:5337.0048-78.0629112938804Clb=-6.8m/s Type=DFM17 ser=[BC]22037099 Details on http://radiosondy.info
K4KDR-12D220370992022-12-07 01:25:4937.0055-78.0647114918847Clb=-7.6m/s t=-37.3C h=-1.0% p=-1.0hPa 404.010 MHz Type=DFM17 ser=22037099 Radiosonde
W4DEX-14D220370992022-12-07 01:25:3837.0061-78.0669110968908Clb=-6.2m/s Type=DFM17 ser=[BC]22037099 Details on http://radiosondy.info
W4DEX-14D220370992022-12-07 01:25:2337.0072-78.0713109949007Clb=-6.7m/s Type=DFM17 ser=[BC]22037099 Details on http://radiosondy.info
W4DEX-14D220370992022-12-07 01:25:0837.0082-78.0755106949101Clb=-6.1m/s Type=DFM17 ser=[BC]22037099 Details on http://radiosondy.info
W4DEX-14D220370992022-12-07 01:24:5337.009-78.07981051029192Clb=-6.0m/s Type=DFM17 ser=[BC]22037099 Details on http://radiosondy.info
K4KDR-12D220370992022-12-07 01:24:4837.0094-78.08191011009227Clb=-6.1m/s t=-39.6C h=-1.0% p=-1.0hPa 404.010 MHz Type=DFM17 ser=22037099 Radiosonde
W4DEX-14D220370992022-12-07 01:24:3837.0099-78.08441071049280Clb=-6.1m/s Type=DFM17 ser=[BC]22037099 Details on http://radiosondy.info
W4DEX-14D220370992022-12-07 01:24:2337.0107-78.08911041069369Clb=-5.5m/s Type=DFM17 ser=[BC]22037099 Details on http://radiosondy.info
W4DEX-14D220370992022-12-07 01:24:0837.0117-78.09391051119458Clb=-6.3m/s Type=DFM17 ser=[BC]22037099 Details on http://radiosondy.info
W4DEX-14D220370992022-12-07 01:23:5337.013-78.09881121179548Clb=-5.9m/s Type=DFM17 ser=[BC]22037099 Details on http://radiosondy.info
K4KDR-12D220370992022-12-07 01:23:4737.0137-78.10121111179584Clb=-6.1m/s t=-42.1C h=-1.0% p=-1.0hPa 404.010 MHz Type=DFM17 ser=22037099 Radiosonde
W4DEX-14D220370992022-12-07 01:23:3837.0146-78.10391131179637Clb=-5.8m/s Type=DFM17 ser=[BC]22037099 Details on http://radiosondy.info
W4DEX-14D220370992022-12-07 01:23:2337.0163-78.10891131179728Clb=-5.9m/s Type=DFM17 ser=[BC]22037099 Details on http://radiosondy.info
W4DEX-14D220370992022-12-07 01:23:0837.018-78.1141151179818Clb=-5.9m/s Type=DFM17 ser=[BC]22037099 Details on http://radiosondy.info
W4DEX-14D220370992022-12-07 01:22:5337.0197-78.11911121199907Clb=-6.0m/s Type=DFM17 ser=[BC]22037099 Details on http://radiosondy.info
K4KDR-12D220370992022-12-07 01:22:4637.0206-78.12181131199949Clb=-6.3m/s t=-44.9C h=-1.0% p=-1.0hPa 404.010 MHz Type=DFM17 ser=22037099 Radiosonde
W4DEX-14D220370992022-12-07 01:22:3837.0215-78.12411141199997Clb=-5.8m/s Type=DFM17 ser=[BC]22037099 Details on http://radiosondy.info
W4DEX-14D220370992022-12-07 01:22:2337.0233-78.129211511910087Clb=-6.0m/s Type=DFM17 ser=[BC]22037099 Details on http://radiosondy.info
W4DEX-14D220370992022-12-07 01:22:0837.0252-78.134211712210178Clb=-5.9m/s Type=DFM17 ser=[BC]22037099 Details on http://radiosondy.info
W4DEX-14D220370992022-12-07 01:21:5337.0273-78.139311812810268Clb=-6.1m/s Type=DFM17 ser=[BC]22037099 Details on http://radiosondy.info
K4KDR-12D220370992022-12-07 01:21:4537.0293-78.143812013110341Clb=-6.2m/s t=-47.9C h=-1.0% p=-1.0hPa 404.010 MHz Type=DFM17 ser=22037099 Radiosonde
W4DEX-14D220370992022-12-07 01:21:3837.0296-78.144612013310360Clb=-6.1m/s Type=DFM17 ser=[BC]22037099 Details on http://radiosondy.info
W4DEX-14D220370992022-12-07 01:21:2337.032-78.1511814110454Clb=-6.4m/s Type=DFM17 ser=[BC]22037099 Details on http://radiosondy.info
W4DEX-14D220370992022-12-07 01:21:0837.0344-78.155911913910548Clb=-6.0m/s Type=DFM17 ser=[BC]22037099 Details on http://radiosondy.info
KG4IFE-1D220370992022-12-07 01:21:0237.0358-78.159311613710598Clb=-6.3m/s t=-49.7C h=-1.0% p=-1.0hPa 404.010 MHz Type=DFM17 ser=22037099 Radiosonde
W4DEX-14D220370992022-12-07 01:20:5337.0368-78.161611514110643Clb=-6.5m/s Type=DFM17 ser=[BC]22037099 Details on http://radiosondy.info
K4KDR-12D220370992022-12-07 01:20:4437.0383-78.165611613910699Clb=-6.0m/s t=-50.2C h=-1.0% p=-1.0hPa 404.010 MHz Type=DFM17 ser=22037099 Radiosonde
W4DEX-14D220370992022-12-07 01:20:3837.039-78.167611414810737Clb=-6.2m/s Type=DFM17 ser=[BC]22037099 Details on http://radiosondy.info
KG4IFE-1D220370992022-12-07 01:20:3237.0404-78.171411314410787Clb=-6.2m/s t=-50.6C h=-1.0% p=-1.0hPa 404.010 MHz Type=DFM17 ser=22037099 Radiosonde
W4DEX-14D220370992022-12-07 01:20:2337.0413-78.173911315210832Clb=-6.7m/s Type=DFM17 ser=[BC]22037099 Details on http://radiosondy.info
W4DEX-14D220370992022-12-07 01:20:0837.0435-78.180411214810930Clb=-6.5m/s Type=DFM17 ser=[BC]22037099 Details on http://radiosondy.info
KG4IFE-1D220370992022-12-07 01:20:0037.0448-78.184311214610982Clb=-7.1m/s t=-51.7C h=-1.0% p=-1.0hPa 404.010 MHz Type=DFM17 ser=22037099 Radiosonde
W4DEX-14D220370992022-12-07 01:19:5337.0456-78.186811115011029Clb=-6.4m/s Type=DFM17 ser=[BC]22037099 Details on http://radiosondy.info
K4KDR-12D220370992022-12-07 01:19:4337.0471-78.191711114811097Clb=-6.6m/s t=-52.6C h=-1.0% p=-1.0hPa 404.010 MHz Type=DFM17 ser=22037099 Radiosonde
W4DEX-14D220370992022-12-07 01:19:3837.0477-78.193411415211131Clb=-6.8m/s Type=DFM17 ser=[BC]22037099 Details on http://radiosondy.info
KG4IFE-1D220370992022-12-07 01:19:2937.0493-78.198211315211199Clb=-7.0m/s t=-53.4C h=-1.0% p=-1.0hPa 404.010 MHz Type=DFM17 ser=22037099 Radiosonde
W4DEX-14D220370992022-12-07 01:19:2337.0499-78.199911315611234Clb=-6.9m/s Type=DFM17 ser=[BC]22037099 Details on http://radiosondy.info
W4DEX-14D220370992022-12-07 01:19:0837.0521-78.206611215411336Clb=-6.8m/s Type=DFM17 ser=[BC]22037099 Details on http://radiosondy.info
KG4IFE-1D220370992022-12-07 01:18:5837.0538-78.211411415211406Clb=-6.8m/s t=-55.2C h=-1.0% p=-1.0hPa 404.010 MHz Type=DFM17 ser=22037099 Radiosonde
W4DEX-14D220370992022-12-07 01:18:5337.0544-78.213211315411441Clb=-7.0m/s Type=DFM17 ser=[BC]22037099 Details on http://radiosondy.info
K4KDR-12D220370992022-12-07 01:18:4237.0564-78.219411115211530Clb=-6.8m/s t=-56.1C h=-1.0% p=-1.0hPa 404.010 MHz Type=DFM17 ser=22037099 Radiosonde
W4DEX-14D220370992022-12-07 01:18:3837.0565-78.219811115611544Clb=-7.4m/s Type=DFM17 ser=[BC]22037099 Details on http://radiosondy.info
KG4IFE-1D220370992022-12-07 01:18:2737.0585-78.225711415911628Clb=-7.0m/s t=-56.9C h=-1.0% p=-1.0hPa 404.010 MHz Type=DFM17 ser=22037099 Radiosonde
W4DEX-14D220370992022-12-07 01:18:2337.0588-78.226611315611649Clb=-7.0m/s Type=DFM17 ser=[BC]22037099 Details on http://radiosondy.info
W4DEX-14D220370992022-12-07 01:18:0837.061-78.233311415611754Clb=-7.1m/s Type=DFM17 ser=[BC]22037099 Details on http://radiosondy.info
KG4IFE-1D220370992022-12-07 01:17:5637.0629-78.23911415611838Clb=-7.7m/s t=-58.7C h=-1.0% p=-1.0hPa 404.010 MHz Type=DFM17 ser=22037099 Radiosonde
W4DEX-14D220370992022-12-07 01:17:5337.0632-78.239911415911859Clb=-7.0m/s Type=DFM17 ser=[BC]22037099 Details on http://radiosondy.info
K4KDR-12D220370992022-12-07 01:17:4137.0653-78.245811416111943Clb=-7.0m/s t=-59.2C h=-1.0% p=-1.0hPa 404.010 MHz Type=DFM17 ser=22037099 Radiosonde
W4DEX-14D220370992022-12-07 01:17:3837.0657-78.246711416111964Clb=-7.4m/s Type=DFM17 ser=[BC]22037099 Details on http://radiosondy.info
KG4IFE-1D220370992022-12-07 01:17:2537.0682-78.254111315912070Clb=-7.2m/s t=-60.1C h=-1.0% p=-1.0hPa 404.010 MHz Type=DFM17 ser=22037099 Radiosonde
W4DEX-14D220370992022-12-07 01:17:2337.0681-78.253611615912070Clb=-7.2m/s Type=DFM17 ser=[BC]22037099 Details on http://radiosondy.info
W4DEX-14D220370992022-12-07 01:17:0837.0706-78.260411715612180Clb=-8.2m/s Type=DFM17 ser=[BC]22037099 Details on http://radiosondy.info
KG4IFE-1D220370992022-12-07 01:16:5437.0733-78.267411415612289Clb=-7.0m/s t=-61.5C h=-1.0% p=-1.0hPa 404.010 MHz Type=DFM17 ser=22037099 Radiosonde
W4DEX-14D220370992022-12-07 01:16:5337.0731-78.26711615212289Clb=-6.9m/s Type=DFM17 ser=[BC]22037099 Details on http://radiosondy.info
K4KDR-12D220370992022-12-07 01:16:4037.0758-78.273811815212398Clb=-7.6m/s t=-62.1C h=-1.0% p=-1.0hPa 404.010 MHz Type=DFM17 ser=22037099 Radiosonde
W4DEX-14D220370992022-12-07 01:16:3837.0756-78.273411814812399Clb=-7.6m/s Type=DFM17 ser=[BC]22037099 Details on http://radiosondy.info
W4DEX-14D220370992022-12-07 01:16:2337.0781-78.279611513912511Clb=-7.5m/s Type=DFM17 ser=[BC]22037099 Details on http://radiosondy.info
KG4IFE-1D220370992022-12-07 01:16:2237.0785-78.280411714412519Clb=-7.5m/s t=-62.6C h=-1.0% p=-1.0hPa 404.010 MHz Type=DFM17 ser=22037099 Radiosonde
W4DEX-14D220370992022-12-07 01:16:0837.0804-78.285511414112627Clb=-7.7m/s Type=DFM17 ser=[BC]22037099 Details on http://radiosondy.info
W4DEX-14D220370992022-12-07 01:15:5337.0825-78.291511014412745Clb=-7.5m/s Type=DFM17 ser=[BC]22037099 Details on http://radiosondy.info
KG4IFE-1D220370992022-12-07 01:15:5237.0828-78.292810814312760Clb=-7.2m/s t=-63.2C h=-1.0% p=-1.0hPa 404.010 MHz Type=DFM17 ser=22037099 Radiosonde
K4KDR-12D220370992022-12-07 01:15:4337.0844-78.298311014612860Clb=-7.9m/s t=-63.8C h=-1.0% p=-1.0hPa 404.010 MHz Type=DFM17 ser=22037099 Radiosonde
W4DEX-14D220370992022-12-07 01:15:4237.0843-78.297811015012861Clb=-7.8m/s Type=DFM17 ser=[BC]22037099 Details on http://radiosondy.info
W4DEX-14D220370992022-12-07 01:15:2937.0863-78.304411415012976Clb=-8.2m/s Type=DFM17 ser=[BC]22037099 Details on http://radiosondy.info
KG4IFE-1D220370992022-12-07 01:15:2737.0869-78.306111114812999Clb=-7.7m/s t=-64.3C h=-1.0% p=-1.0hPa 404.010 MHz Type=DFM17 ser=22037099 Radiosonde
W4DEX-14D220370992022-12-07 01:15:1837.0883-78.310911314313092Clb=-7.9m/s Type=DFM17 ser=[BC]22037099 Details on http://radiosondy.info
W4DEX-14D220370992022-12-07 01:15:0437.0902-78.317111014313210Clb=-8.2m/s Type=DFM17 ser=[BC]22037099 Details on http://radiosondy.info
KG4IFE-1D220370992022-12-07 01:15:0137.0909-78.319610614113250Clb=-7.7m/s t=-64.0C h=-1.0% p=-1.0hPa 404.010 MHz Type=DFM17 ser=22037099 Radiosonde
W4DEX-14D220370992022-12-07 01:14:5137.0918-78.323410814413330Clb=-8.1m/s Type=DFM17 ser=[BC]22037099 Details on http://radiosondy.info
W4DEX-14D220370992022-12-07 01:14:3937.0932-78.3310315613454Clb=-8.5m/s Type=DFM17 ser=[BC]22037099 Details on http://radiosondy.info
KG4IFE-1D220370992022-12-07 01:14:3537.0937-78.332710515013497Clb=-9.0m/s t=-63.9C h=-1.0% p=-1.0hPa 404.010 MHz Type=DFM17 ser=22037099 Radiosonde
W4DEX-14D220370992022-12-07 01:14:2737.0946-78.337110316513581Clb=-8.6m/s Type=DFM17 ser=[BC]22037099 Details on http://radiosondy.info
W4DEX-14D220370992022-12-07 01:14:1337.096-78.344610416113708Clb=-9.4m/s Type=DFM17 ser=[BC]22037099 Details on http://radiosondy.info
KG4IFE-1D220370992022-12-07 01:14:0837.0967-78.34810516113760Clb=-8.6m/s t=-65.1C h=-1.0% p=-1.0hPa 404.010 MHz Type=DFM17 ser=22037099 Radiosonde
W4DEX-14D220370992022-12-07 01:14:0037.0977-78.351910815613838Clb=-8.3m/s Type=DFM17 ser=[BC]22037099 Details on http://radiosondy.info
K4KDR-12D220370992022-12-07 01:13:5937.098-78.353210615013855Clb=-8.5m/s t=-64.8C h=-1.0% p=-1.0hPa 404.010 MHz Type=DFM17 ser=22037099 Radiosonde
W4DEX-14D220370992022-12-07 01:13:4637.0995-78.358711215213970Clb=-8.6m/s Type=DFM17 ser=[BC]22037099 Details on http://radiosondy.info
KG4IFE-1D220370992022-12-07 01:13:4037.1006-78.362211015014032Clb=-9.0m/s t=-64.8C h=-1.0% p=-1.0hPa 404.010 MHz Type=DFM17 ser=22037099 Radiosonde
W4DEX-14D220370992022-12-07 01:13:3337.1016-78.365311314414105Clb=-8.8m/s Type=DFM17 ser=[BC]22037099 Details on http://radiosondy.info
W4DEX-14D220370992022-12-07 01:13:1837.1035-78.371611414614241Clb=-9.0m/s Type=DFM17 ser=[BC]22037099 Details on http://radiosondy.info
KG4IFE-1D220370992022-12-07 01:13:1137.1047-78.375410915014318Clb=-10.1m/s t=-65.2C h=-1.0% p=-1.0hPa 404.010 MHz Type=DFM17 ser=22037099 Radiosonde
W4DEX-14D220370992022-12-07 01:13:0437.1056-78.377911513914386Clb=-9.8m/s Type=DFM17 ser=[BC]22037099 Details on http://radiosondy.info
K4KDR-12D220370992022-12-07 01:13:0237.1061-78.379511114114414Clb=-9.3m/s t=-65.8C h=-1.0% p=-1.0hPa 404.010 MHz Type=DFM17 ser=22037099 Radiosonde
W4DEX-14D220370992022-12-07 01:12:5037.1077-78.383811812814528Clb=-9.4m/s Type=DFM17 ser=[BC]22037099 Details on http://radiosondy.info
KG4IFE-1D220370992022-12-07 01:12:4137.1092-78.387811812814622Clb=-9.9m/s t=-66.1C h=-1.0% p=-1.0hPa 404.010 MHz Type=DFM17 ser=22037099 Radiosonde
W4DEX-14D220370992022-12-07 01:12:3637.1097-78.389211512814670Clb=-9.6m/s Type=DFM17 ser=[BC]22037099 Details on http://radiosondy.info
W4DEX-14D220370992022-12-07 01:12:2137.1116-78.394711512214817Clb=-9.8m/s Type=DFM17 ser=[BC]22037099 Details on http://radiosondy.info
KG4IFE-1D220370992022-12-07 01:12:1137.1132-78.398511311914916Clb=-9.6m/s t=-66.7C h=-1.0% p=-1.0hPa 404.010 MHz Type=DFM17 ser=22037099 Radiosonde
W4DEX-14D220370992022-12-07 01:12:0637.1137-78.399911211314965Clb=-9.5m/s Type=DFM17 ser=[BC]22037099 Details on http://radiosondy.info
K4KDR-12D220370992022-12-07 01:12:0337.1142-78.401611011515005Clb=-9.9m/s t=-66.4C h=-1.0% p=-1.0hPa 404.010 MHz Type=DFM17 ser=22037099 Radiosonde
W4DEX-14D220370992022-12-07 01:11:5137.1152-78.404811210215113Clb=-9.1m/s Type=DFM17 ser=[BC]22037099 Details on http://radiosondy.info
KG4IFE-1D220370992022-12-07 01:11:4037.1163-78.40841099815220Clb=-9.8m/s t=-66.5C h=-1.0% p=-1.0hPa 404.010 MHz Type=DFM17 ser=22037099 Radiosonde
W4DEX-14D220370992022-12-07 01:11:3637.1165-78.40921059415259Clb=-9.8m/s Type=DFM17 ser=[BC]22037099 Details on http://radiosondy.info
W4DEX-14D220370992022-12-07 01:11:2137.1173-78.41351009415409Clb=-11.1m/s Type=DFM17 ser=[BC]22037099 Details on http://radiosondy.info
KG4IFE-1D220370992022-12-07 01:11:0937.1177-78.41739310015530Clb=-10.2m/s t=-67.6C h=-1.0% p=-1.0hPa 404.010 MHz Type=DFM17 ser=22037099 Radiosonde
W4DEX-14D220370992022-12-07 01:11:0737.1177-78.41799710215560Clb=-9.9m/s Type=DFM17 ser=[BC]22037099 Details on http://radiosondy.info
K4KDR-12D220370992022-12-07 01:11:0337.1179-78.41979810415610Clb=-10.0m/s t=-68.0C h=-1.0% p=-1.0hPa 404.010 MHz Type=DFM17 ser=22037099 Radiosonde
W4DEX-14D220370992022-12-07 01:10:5237.1182-78.42279711115711Clb=-9.9m/s Type=DFM17 ser=[BC]22037099 Details on http://radiosondy.info
KG4IFE-1D220370992022-12-07 01:10:3937.1187-78.42759711515842Clb=-10.1m/s t=-69.1C h=-1.0% p=-1.0hPa 404.010 MHz Type=DFM17 ser=22037099 Radiosonde
W4DEX-14D220370992022-12-07 01:10:3837.1188-78.427810111115862Clb=-9.8m/s Type=DFM17 ser=[BC]22037099 Details on http://radiosondy.info
W4DEX-14D220370992022-12-07 01:10:3037.1194-78.4339810616015Clb=-10.7m/s Type=DFM17 ser=[BC]22037099 Details on http://radiosondy.info
W4DEX-14D220370992022-12-07 01:10:0837.1201-78.437910410616173Clb=-10.7m/s Type=DFM17 ser=[BC]22037099 Details on http://radiosondy.info
K4KDR-12D220370992022-12-07 01:10:0237.1204-78.440210210216237Clb=-10.8m/s t=-69.9C h=-1.0% p=-1.0hPa 404.010 MHz Type=DFM17 ser=22037099 Radiosonde
W4DEX-14D220370992022-12-07 01:09:5237.1209-78.442710110016334Clb=-10.6m/s Type=DFM17 ser=[BC]22037099 Details on http://radiosondy.info
KG4IFE-1D220370992022-12-07 01:09:3637.1217-78.44799910216506Clb=-11.0m/s t=-69.6C h=-1.0% p=-1.0hPa 404.010 MHz Type=DFM17 ser=22037099 Radiosonde
W4DEX-14D220370992022-12-07 01:09:2037.1226-78.45210310016660Clb=-11.1m/s Type=DFM17 ser=[BC]22037099 Details on http://radiosondy.info
W4DEX-14D220370992022-12-07 01:09:0437.1234-78.456610210016824Clb=-10.8m/s Type=DFM17 ser=[BC]22037099 Details on http://radiosondy.info
KG4IFE-1D220370992022-12-07 01:09:0237.1235-78.457510310216846Clb=-10.5m/s t=-70.6C h=-1.0% p=-1.0hPa 404.010 MHz Type=DFM17 ser=22037099 Radiosonde
K4KDR-12D220370992022-12-07 01:08:5737.1238-78.459979316902Clb=-11.5m/s t=-70.6C h=-1.0% p=-1.0hPa 404.010 MHz Type=DFM17 ser=22037099 Radiosonde
W4DEX-14D220370992022-12-07 01:08:4837.1241-78.461210011116991Clb=-11.0m/s Type=DFM17 ser=[BC]22037099 Details on http://radiosondy.info
W4DEX-14D220370992022-12-07 01:08:3337.1246-78.46639511317160Clb=-10.4m/s Type=DFM17 ser=[BC]22037099 Details on http://radiosondy.info
KG4IFE-1D220370992022-12-07 01:08:3037.1247-78.46779711517193Clb=-10.6m/s t=-69.2C h=-1.0% p=-1.0hPa 404.010 MHz Type=DFM17 ser=22037099 Radiosonde
W4DEX-14D220370992022-12-07 01:08:1737.1253-78.471510411117325Clb=-11.1m/s Type=DFM17 ser=[BC]22037099 Details on http://radiosondy.info
W4DEX-14D220370992022-12-07 01:08:0237.1267-78.476411210017494Clb=-11.1m/s Type=DFM17 ser=[BC]22037099 Details on http://radiosondy.info
KG4IFE-1D220370992022-12-07 01:07:5937.1273-78.47821149817551Clb=-11.3m/s t=-70.3C h=-1.0% p=-1.0hPa 404.010 MHz Type=DFM17 ser=22037099 Radiosonde
K4KDR-12D220370992022-12-07 01:07:5437.1276-78.4791149617585Clb=-11.4m/s t=-70.4C h=-1.0% p=-1.0hPa 404.010 MHz Type=DFM17 ser=22037099 Radiosonde
W4DEX-14D220370992022-12-07 01:07:4637.1282-78.48071178017667Clb=-11.6m/s Type=DFM17 ser=[BC]22037099 Details on http://radiosondy.info
W4DEX-14D220370992022-12-07 01:07:3137.1296-78.48391245217840Clb=-11.9m/s Type=DFM17 ser=[BC]22037099 Details on http://radiosondy.info
KG4IFE-1D220370992022-12-07 01:07:2537.1301-78.48481285417898Clb=-11.7m/s t=-68.0C h=-1.0% p=-1.0hPa 404.010 MHz Type=DFM17 ser=22037099 Radiosonde
W4DEX-14D220370992022-12-07 01:07:1137.1307-78.48591133118018Clb=-12.8m/s Type=DFM17 ser=[BC]22037099 Details on http://radiosondy.info
W4DEX-14D220370992022-12-07 01:06:5537.1312-78.4872892418205Clb=-12.4m/s Type=DFM17 ser=[BC]22037099 Details on http://radiosondy.info
KG4IFE-1D220370992022-12-07 01:06:4937.1312-78.48771012218279Clb=-13.5m/s t=-69.3C h=-1.0% p=-1.0hPa 404.010 MHz Type=DFM17 ser=22037099 Radiosonde
K4KDR-12D220370992022-12-07 01:06:4537.1312-78.48791081718318Clb=-12.3m/s t=-69.3C h=-1.0% p=-1.0hPa 404.010 MHz Type=DFM17 ser=22037099 Radiosonde
W4DEX-14D220370992022-12-07 01:06:3837.1313-78.4882982218393Clb=-12.9m/s Type=DFM17 ser=[BC]22037099 Details on http://radiosondy.info
W4DEX-14D220370992022-12-07 01:06:2237.1312-78.4893593918584Clb=-12.7m/s Type=DFM17 ser=[BC]22037099 Details on http://radiosondy.info
KG4IFE-1D220370992022-12-07 01:06:1537.1309-78.4901613118677Clb=-13.3m/s t=-67.9C h=-1.0% p=-1.0hPa 404.010 MHz Type=DFM17 ser=22037099 Radiosonde
W4DEX-14D220370992022-12-07 01:06:0437.1306-78.4909755018779Clb=-12.8m/s Type=DFM17 ser=[BC]22037099 Details on http://radiosondy.info
W4DEX-14D220370992022-12-07 01:05:4937.1303-78.4932933718973Clb=-12.2m/s Type=DFM17 ser=[BC]22037099 Details on http://radiosondy.info
KG4IFE-1D220370992022-12-07 01:05:4037.1305-78.4943923019073Clb=-11.9m/s t=-66.8C h=-1.0% p=-1.0hPa 404.010 MHz Type=DFM17 ser=22037099 Radiosonde
K4KDR-12D220370992022-12-07 01:05:3737.1305-78.4945913519098Clb=-12.7m/s t=-66.7C h=-1.0% p=-1.0hPa 404.010 MHz Type=DFM17 ser=22037099 Radiosonde
W4DEX-14D220370992022-12-07 01:05:3137.1304-78.4949582819161Clb=-12.9m/s Type=DFM17 ser=[BC]22037099 Details on http://radiosondy.info
W4DEX-14D220370992022-12-07 01:05:1537.1298-78.4959553519354Clb=-12.0m/s Type=DFM17 ser=[BC]22037099 Details on http://radiosondy.info
KG4IFE-1D220370992022-12-07 01:05:0537.1292-78.4968763119482Clb=-12.6m/s t=-66.1C h=-1.0% p=-1.0hPa 404.010 MHz Type=DFM17 ser=22037099 Radiosonde
W4DEX-14D220370992022-12-07 01:04:5837.1291-78.4973763019547Clb=-11.7m/s Type=DFM17 ser=[BC]22037099 Details on http://radiosondy.info
W4DEX-14D220370992022-12-07 01:04:4237.1291-78.49861162819739Clb=-13.2m/s Type=DFM17 ser=[BC]22037099 Details on http://radiosondy.info
KG4IFE-1D220370992022-12-07 01:04:3137.1293-78.49961062419869Clb=-14.8m/s t=-65.1C h=-1.0% p=-1.0hPa 404.010 MHz Type=DFM17 ser=22037099 Radiosonde
K4KDR-12D220370992022-12-07 01:04:3037.1293-78.4996943119883Clb=-12.7m/s t=-65.1C h=-1.0% p=-1.0hPa 404.010 MHz Type=DFM17 ser=22037099 Radiosonde
W4DEX-14D220370992022-12-07 01:04:2437.1293-78.5701519935Clb=-14.3m/s Type=DFM17 ser=[BC]22037099 Details on http://radiosondy.info
W4DEX-14D220370992022-12-07 01:04:0937.1293-78.5005971720126Clb=-12.0m/s Type=DFM17 ser=[BC]22037099 Details on http://radiosondy.info
KG4IFE-1D220370992022-12-07 01:03:5737.1292-78.501180720266Clb=-12.7m/s t=-64.2C h=-1.0% p=-1.0hPa 404.010 MHz Type=DFM17 ser=22037099 Radiosonde
W4DEX-14D220370992022-12-07 01:03:5337.1292-78.5012331920319Clb=-15.2m/s Type=DFM17 ser=[BC]22037099 Details on http://radiosondy.info
W4DEX-14D220370992022-12-07 01:03:3837.1287-78.5017681920507Clb=-11.4m/s Type=DFM17 ser=[BC]22037099 Details on http://radiosondy.info
K4KDR-12D220370992022-12-07 01:03:2637.1285-78.50231201320653Clb=-12.2m/s t=-63.5C h=-1.0% p=-1.0hPa 404.010 MHz Type=DFM17 ser=22037099 Radiosonde
W4DEX-14D220370992022-12-07 01:03:2337.1285-78.5024853020691Clb=-10.2m/s Type=DFM17 ser=[BC]22037099 Details on http://radiosondy.info
W4DEX-14D220370992022-12-07 01:03:0837.128-78.5037703320876Clb=-14.0m/s Type=DFM17 ser=[BC]22037099 Details on http://radiosondy.info
KG4IFE-1D220370992022-12-07 01:02:5537.1276-78.5051672421044Clb=-13.6m/s t=-64.6C h=-1.0% p=-1.0hPa 404.010 MHz Type=DFM17 ser=22037099 Radiosonde
W4DEX-14D220370992022-12-07 01:02:5337.1275-78.5052663021071Clb=-12.3m/s Type=DFM17 ser=[BC]22037099 Details on http://radiosondy.info
W4DEX-14D220370992022-12-07 01:02:3837.1272-78.5064732621266Clb=-13.4m/s Type=DFM17 ser=[BC]22037099 Details on http://radiosondy.info
K4KDR-12D220370992022-12-07 01:02:2537.1273-78.50751103121439Clb=-14.3m/s t=-64.0C h=-1.0% p=-1.0hPa 404.010 MHz Type=DFM17 ser=22037099 Radiosonde
KG4IFE-1D220370992022-12-07 01:02:2437.1273-78.5077963021466Clb=-13.8m/s t=-63.9C h=-1.0% p=-1.0hPa 404.010 MHz Type=DFM17 ser=22037099 Radiosonde
W4DEX-14D220370992022-12-07 01:02:2337.1273-78.5076992821466Clb=-13.7m/s Type=DFM17 ser=[BC]22037099 Details on http://radiosondy.info
W4DEX-14D220370992022-12-07 01:02:0837.1274-78.5087873021686Clb=-13.6m/s Type=DFM17 ser=[BC]22037099 Details on http://radiosondy.info
W4DEX-14D220370992022-12-07 01:01:5337.1278-78.5101973721905Clb=-14.5m/s Type=DFM17 ser=[BC]22037099 Details on http://radiosondy.info
W4DEX-14D220370992022-12-07 01:01:3837.1277-78.5118774622136Clb=-15.3m/s Type=DFM17 ser=[BC]22037099 Details on http://radiosondy.info
K4KDR-12D220370992022-12-07 01:01:2437.1273-78.5139745022359Clb=-13.6m/s t=-63.8C h=-1.0% p=-1.0hPa 404.010 MHz Type=DFM17 ser=22037099 Radiosonde
W4DEX-14D220370992022-12-07 01:01:2337.1273-78.5139755422374Clb=-15.4m/s Type=DFM17 ser=[BC]22037099 Details on http://radiosondy.info
KG4IFE-1D220370992022-12-07 01:01:2237.1273-78.5143914822406Clb=-15.1m/s t=-63.8C h=-1.0% p=-1.0hPa 404.010 MHz Type=DFM17 ser=22037099 Radiosonde
W4DEX-14D220370992022-12-07 01:01:0837.1273-78.5163883722614Clb=-16.6m/s Type=DFM17 ser=[BC]22037099 Details on http://radiosondy.info
KG4IFE-1D220370992022-12-07 01:00:5437.1276-78.51821341922904Clb=-14.8m/s t=-63.7C h=-1.0% p=-1.0hPa 404.010 MHz Type=DFM17 ser=22037099 Radiosonde
K4KDR-12D220370992022-12-07 01:00:5337.1267-78.5202753523358Clb=-15.9m/s t=-60.9C h=-1.0% p=-1.0hPa 404.010 MHz Type=DFM17 ser=22037099 Radiosonde
W4DEX-14D220370992022-12-07 01:00:5237.1259-78.5219635223594Clb=-16.6m/s Type=DFM17 ser=[BC]22037099 Details on http://radiosondy.info
KG4IFE-1D220370992022-12-07 01:00:5137.1252-78.525775923956Clb=-17.5m/s t=-60.3C h=-1.0% p=-1.0hPa 404.010 MHz Type=DFM17 ser=22037099 Radiosonde
W4DEX-14D220370992022-12-07 01:00:5037.1247-78.529924324406Clb=-17.2m/s Type=DFM17 ser=[BC]22037099 Details on http://radiosondy.info
W4KZK-14D220370992022-12-07 01:00:4937.1242-78.5335875424998Clb=-21.0m/s t=-57.8C h=-1.0% p=-1.0hPa 404.010 MHz Type=DFM17 ser=22037099 Radiosonde
KG4IFE-1D220370992022-12-07 01:00:4837.1239-78.535656525139Clb=-18.5m/s t=-57.2C h=-1.0% p=-1.0hPa 404.010 MHz Type=DFM17 ser=22037099 Radiosonde
W4DEX-14D220370992022-12-07 01:00:4737.1223-78.5378646725598Clb=-19.8m/s Type=DFM17 ser=[BC]22037099 Details on http://radiosondy.info
K4KDR-12D220370992022-12-07 01:00:4637.1221-78.5385777825642Clb=-21.3m/s t=-56.7C h=-1.0% p=-1.0hPa 404.010 MHz Type=DFM17 ser=22037099 Radiosonde
W4DEX-14D220370992022-12-07 01:00:4537.1218-78.5408776125916Clb=-19.3m/s Type=DFM17 ser=[BC]22037099 Details on http://radiosondy.info
W4DEX-14D220370992022-12-07 01:00:3937.1215-78.5436965926244Clb=-21.9m/s Type=DFM17 ser=[BC]22037099 Details on http://radiosondy.info
W4KZK-14D220370992022-12-07 01:00:3837.1214-78.5449777426376Clb=-20.6m/s t=-55.1C h=-1.0% p=-1.0hPa 404.010 MHz Type=DFM17 ser=22037099 Radiosonde
KG4IFE-1D220370992022-12-07 01:00:3737.1213-78.5455856126439Clb=-21.1m/s t=-55.0C h=-1.0% p=-1.0hPa 404.010 MHz Type=DFM17 ser=22037099 Radiosonde
W4DEX-14D220370992022-12-07 01:00:3637.1212-78.5462716726590Clb=-24.7m/s Type=DFM17 ser=[BC]22037099 Details on http://radiosondy.info
W4DEX-14D220370992022-12-07 01:00:3237.121-78.5494917626978Clb=-25.7m/s Type=DFM17 ser=[BC]22037099 Details on http://radiosondy.info
K4KDR-12D220370992022-12-07 01:00:3137.1209-78.5504647627074Clb=-23.3m/s t=-53.8C h=-1.0% p=-1.0hPa 404.010 MHz Type=DFM17 ser=22037099 Radiosonde
W4KZK-14D220370992022-12-07 01:00:3037.1205-78.5515697627200Clb=-25.8m/s t=-53.0C h=-1.0% p=-1.0hPa 404.010 MHz Type=DFM17 ser=22037099 Radiosonde
KG4IFE-1D220370992022-12-07 01:00:2937.1204-78.5517707827227Clb=-27.0m/s t=-52.9C h=-1.0% p=-1.0hPa 404.010 MHz Type=DFM17 ser=22037099 Radiosonde
W4DEX-14D220370992022-12-07 01:00:2837.1201-78.5527668727366Clb=-26.8m/s Type=DFM17 ser=[BC]22037099 Details on http://radiosondy.info
KG4IFE-1D220370992022-12-07 01:00:2137.1186-78.5598809428063Clb=-27.9m/s t=-55.1C h=-1.0% p=-1.0hPa 404.010 MHz Type=DFM17 ser=22037099 Radiosonde
K4KDR-12D220370992022-12-07 01:00:2037.1178-78.5662798528752Clb=-30.2m/s t=-53.1C h=-1.0% p=-1.0hPa 404.010 MHz Type=DFM17 ser=22037099 Radiosonde
W4DEX-14D220370992022-12-07 01:00:1937.1171-78.57468312829554Clb=-30.0m/s Type=DFM17 ser=[BC]22037099 Details on http://radiosondy.info
KG4IFE-1D220370992022-12-07 01:00:1837.1163-78.588514129940Clb=-30.0m/s t=-48.6C h=-1.0% p=-1.0hPa 404.010 MHz Type=DFM17 ser=22037099 Radiosonde
W4DEX-14D220370992022-12-07 01:00:1137.1155-78.58768816330474Clb=-42.8m/s Type=DFM17 ser=[BC]22037099 Details on http://radiosondy.info
K4KDR-12D220370992022-12-07 01:00:0837.1154-78.5918416930709Clb=-37.6m/s t=-46.5C h=-1.0% p=-1.0hPa 404.010 MHz Type=DFM17 ser=22037099 Radiosonde
KG4IFE-1D220370992022-12-07 00:59:5837.1153-78.59529116530959Clb=-30.2m/s t=-46.9C h=-1.0% p=-1.0hPa 404.010 MHz Type=DFM17 ser=22037099 Radiosonde
W4KZK-14D220370992022-12-07 00:59:5237.1152-78.59888616731151Clb=-20.8m/s t=-46.7C h=-1.0% p=-1.0hPa 404.010 MHz Type=DFM17 ser=22037099 Radiosonde
W4DEX-14D220370992022-12-07 00:59:3737.1151-78.60388715431481Clb=-34.3m/s Type=DFM17 ser=[BC]22037099 Details on http://radiosondy.info
KG4IFE-1D220370992022-12-07 00:59:2037.1153-78.61059016731888Clb=-34.2m/s t=-45.5C h=-1.0% p=-1.0hPa 404.010 MHz Type=DFM17 ser=22037099 Radiosonde
W4DEX-14D220370992022-12-07 00:59:1737.1153-78.6119117031959Clb=-35.5m/s Type=DFM17 ser=[BC]22037099 Details on http://radiosondy.info
W4KZK-14D220370992022-12-07 00:59:0837.1153-78.61519317432187Clb=-30.7m/s t=-44.9C h=-1.0% p=-1.0hPa 404.010 MHz Type=DFM17 ser=22037099 Radiosonde
W4DEX-14D220370992022-12-07 00:58:5637.1154-78.6199118732438Clb=-33.2m/s Type=DFM17 ser=[BC]22037099 Details on http://radiosondy.info
K4KDR-12D220370992022-12-07 00:58:5037.1156-78.62249319132615Clb=-39.0m/s t=-45.6C h=-1.0% p=-1.0hPa 404.010 MHz Type=DFM17 ser=22037099 Radiosonde
W4DEX-14D220370992022-12-07 00:58:3637.1156-78.62778620932990Clb=-37.5m/s Type=DFM17 ser=[BC]22037099 Details on http://radiosondy.info
W4KZK-14D220370992022-12-07 00:58:2137.115-78.63468522833359Clb=-36.5m/s t=-45.3C h=-1.0% p=-1.0hPa 404.010 MHz Type=DFM17 ser=22037099 Radiosonde
W4DEX-14D220370992022-12-07 00:58:1437.1149-78.63748423233530Clb=-36.7m/s Type=DFM Details on http://radiosondy.info
KG4IFE-1D220370992022-12-07 00:57:5537.1143-78.64978727033991Clb=-11.5m/s t=-45.1C h=-1.0% p=-1.0hPa 404.010 MHz Type=DFM17 ser=22037099 Radiosonde
W4KZK-14D220370992022-12-07 00:57:3737.1141-78.65998728033936Clb=3.1m/s t=-45.5C h=-1.0% p=-1.0hPa 404.010 MHz Type=DFM17 ser=22037099 Radiosonde
K4KDR-12D220370992022-12-07 00:57:2837.114-78.66588527433886Clb=8.0m/s t=-45.6C h=-1.0% p=-1.0hPa 404.010 MHz Type=DFM17 ser=22037099 Radiosonde
W4DEX-14D220370992022-12-07 00:57:2337.1139-78.66678824133878Clb=0.9m/s Type=DFM17 ser=[BC]22037099 Details on http://radiosondy.info
KG4IFE-1D220370992022-12-07 00:57:1337.1137-78.67328527233822Clb=9.7m/s t=-45.6C h=-1.0% p=-1.0hPa 404.010 MHz Type=DFM17 ser=22037099 Radiosonde
W4DEX-14D220370992022-12-07 00:57:0337.1136-78.67778623033777Clb=1.7m/s Type=DFM17 ser=[BC]22037099 Details on http://radiosondy.info
W4KZK-14D220370992022-12-07 00:56:5337.1131-78.68638221533702Clb=5.5m/s t=-46.0C h=-1.0% p=-1.0hPa 404.010 MHz Type=DFM17 ser=22037099 Radiosonde
W4DEX-14D220370992022-12-07 00:56:4337.1129-78.68868623033673Clb=2.2m/s Type=DFM17 ser=[BC]22037099 Details on http://radiosondy.info
KG4IFE-1D220370992022-12-07 00:56:3237.1124-78.69568426333606Clb=5.5m/s t=-46.2C h=-1.0% p=-1.0hPa 404.010 MHz Type=DFM17 ser=22037099 Radiosonde
W4DEX-14D220370992022-12-07 00:56:2237.1122-78.69918921533566Clb=1.9m/s Type=DFM17 ser=[BC]22037099 Details on http://radiosondy.info
K4KDR-12D220370992022-12-07 00:56:0637.1115-78.70928126133456Clb=7.4m/s t=-46.8C h=-1.0% p=-1.0hPa 404.010 MHz Type=DFM17 ser=22037099 Radiosonde
W4DEX-14D220370992022-12-07 00:56:0237.1114-78.70928222233452Clb=1.3m/s Type=DFM17 ser=[BC]22037099 Details on http://radiosondy.info
KG4IFE-1D220370992022-12-07 00:55:4937.1108-78.71668125633376Clb=4.5m/s t=-46.7C h=-1.0% p=-1.0hPa 404.010 MHz Type=DFM17 ser=22037099 Radiosonde
W4DEX-14D220370992022-12-07 00:55:4137.1106-78.71938620433338Clb=5.1m/s Type=DFM17 ser=[BC]22037099 Details on http://radiosondy.info
W4KZK-14D220370992022-12-07 00:55:2437.1097-78.72888024133233Clb=7.5m/s t=-47.0C h=-1.0% p=-1.0hPa 404.010 MHz Type=DFM17 ser=22037099 Radiosonde
W4DEX-14D220370992022-12-07 00:55:2137.1097-78.72888120633227Clb=3.5m/s Type=DFM17 ser=[BC]22037099 Details on http://radiosondy.info
KG4IFE-1D220370992022-12-07 00:55:0837.1088-78.73718018133142Clb=9.7m/s t=-47.6C h=-1.0% p=-1.0hPa 404.010 MHz Type=DFM17 ser=22037099 Radiosonde
W4DEX-14D220370992022-12-07 00:55:0037.1087-78.73819018933119Clb=4.6m/s Type=DFM17 ser=[BC]22037099 Details on http://radiosondy.info
K4KDR-12D220370992022-12-07 00:54:4437.1078-78.7478122033019Clb=3.5m/s t=-47.9C h=-1.0% p=-1.0hPa 404.010 MHz Type=DFM17 ser=22037099 Radiosonde
W4DEX-14D220370992022-12-07 00:54:4237.1078-78.74718118333016Clb=2.7m/s Type=DFM17 ser=[BC]22037099 Details on http://radiosondy.info
W4KZK-14D220370992022-12-07 00:54:4137.1075-78.74937714332992Clb=6.1m/s t=-48.0C h=-1.0% p=-1.0hPa 404.010 MHz Type=DFM17 ser=22037099 Radiosonde
KG4IFE-1D220370992022-12-07 00:54:2737.1071-78.75448515932930Clb=10.0m/s t=-48.0C h=-1.0% p=-1.0hPa 404.010 MHz Type=DFM17 ser=22037099 Radiosonde
W4DEX-14D220370992022-12-07 00:54:2137.107-78.75538518532910Clb=7.7m/s Type=DFM17 ser=[BC]22037099 Details on http://radiosondy.info
W4DEX-14D220370992022-12-07 00:54:0037.1068-78.76419017832809Clb=10.0m/s Type=DFM17 ser=[BC]22037099 Details on http://radiosondy.info
W4KZK-14D220370992022-12-07 00:53:5437.1069-78.76789220932766Clb=9.8m/s t=-48.4C h=-1.0% p=-1.0hPa 404.010 MHz Type=DFM17 ser=22037099 Radiosonde
KG4IFE-1D220370992022-12-07 00:53:4137.107-78.77199915632720Clb=1.2m/s t=-48.2C h=-1.0% p=-1.0hPa 404.010 MHz Type=DFM17 ser=22037099 Radiosonde
W4DEX-14D220370992022-12-07 00:53:3837.107-78.77239819332707Clb=8.8m/s Type=DFM17 ser=[BC]22037099 Details on http://radiosondy.info
K4KDR-12D220370992022-12-07 00:53:1937.1075-78.78249414432606Clb=6.1m/s t=-48.4C h=-1.0% p=-1.0hPa 404.010 MHz Type=DFM17 ser=22037099 Radiosonde
KG4IFE-1D220370992022-12-07 00:52:5837.1078-78.78999419632534Clb=10.1m/s t=-48.1C h=-1.0% p=-1.0hPa 404.010 MHz Type=DFM17 ser=22037099 Radiosonde
W4DEX-14D220370992022-12-07 00:52:5637.1078-78.78999419432525Clb=7.6m/s Type=DFM17 ser=[BC]22037099 Details on http://radiosondy.info
W4DEX-14D220370992022-12-07 00:52:3537.108-78.79889118032438Clb=4.8m/s Type=DFM17 ser=[BC]22037099 Details on http://radiosondy.info
W4DEX-14D220370992022-12-07 00:52:1037.1079-78.80728818732353Clb=2.8m/s Type=DFM17 ser=[BC]22037099 Details on http://radiosondy.info
W4DEX-14D220370992022-12-07 00:51:4837.1078-78.81588917832269Clb=4.3m/s Type=DFM17 ser=[BC]22037099 Details on http://radiosondy.info
W4DEX-14D220370992022-12-07 00:51:2537.1079-78.82429617032181Clb=7.7m/s Type=DFM17 ser=[BC]22037099 Details on http://radiosondy.info
KG4IFE-1D220370992022-12-07 00:51:2337.108-78.82579414632170Clb=0.9m/s t=-48.5C h=-1.0% p=-1.0hPa 404.010 MHz Type=DFM17 ser=22037099 Radiosonde
W4DEX-14D220370992022-12-07 00:51:0437.1078-78.83218516732089Clb=6.3m/s Type=DFM17 ser=[BC]22037099 Details on http://radiosondy.info
W4DEX-14D220370992022-12-07 00:50:4137.1074-78.83979715931995Clb=4.2m/s Type=DFM17 ser=[BC]22037099 Details on http://radiosondy.info
KG4IFE-1D220370992022-12-07 00:50:3637.1075-78.84119217831981Clb=7.8m/s t=-49.8C h=-1.0% p=-1.0hPa 404.010 MHz Type=DFM17 ser=22037099 Radiosonde
W4DEX-14D220370992022-12-07 00:50:1937.1074-78.84728915031898Clb=7.4m/s Type=DFM17 ser=[BC]22037099 Details on http://radiosondy.info
K4KDR-12D220370992022-12-07 00:50:1637.1074-78.84858513531885Clb=6.0m/s t=-49.7C h=-1.0% p=-1.0hPa 404.010 MHz Type=DFM17 ser=22037099 Radiosonde
W4DEX-14D220370992022-12-07 00:49:5637.1072-78.85418614831800Clb=6.8m/s Type=DFM17 ser=[BC]22037099 Details on http://radiosondy.info
KG4IFE-1D220370992022-12-07 00:49:5137.1073-78.855910213031778Clb=5.8m/s t=-49.9C h=-1.0% p=-1.0hPa 404.010 MHz Type=DFM17 ser=22037099 Radiosonde
W4KZK-14D220370992022-12-07 00:49:4937.1074-78.85689515431769Clb=6.9m/s t=-49.9C h=-1.0% p=-1.0hPa 404.010 MHz Type=DFM17 ser=22037099 Radiosonde
W4DEX-14D220370992022-12-07 00:49:3537.1076-78.8619515631701Clb=8.3m/s Type=DFM17 ser=[BC]22037099 Details on http://radiosondy.info
W4DEX-14D220370992022-12-07 00:49:1137.1077-78.86829816331603Clb=4.9m/s Type=DFM17 ser=[BC]22037099 Details on http://radiosondy.info
KG4IFE-1D220370992022-12-07 00:49:0537.1077-78.87098316531575Clb=4.3m/s t=-49.2C h=-1.0% p=-1.0hPa 404.010 MHz Type=DFM17 ser=22037099 Radiosonde
W4KZK-14D220370992022-12-07 00:49:0037.1078-78.87319615231544Clb=6.3m/s t=-49.3C h=-1.0% p=-1.0hPa 404.010 MHz Type=DFM17 ser=22037099 Radiosonde
W4DEX-14D220370992022-12-07 00:48:5137.1076-78.87588416331499Clb=7.9m/s Type=DFM17 ser=[BC]22037099 Details on http://radiosondy.info
W4DEX-14D220370992022-12-07 00:48:2737.1076-78.88348817231399Clb=7.5m/s Type=DFM17 ser=[BC]22037099 Details on http://radiosondy.info
KG4IFE-1D220370992022-12-07 00:48:1937.1073-78.88768414331355Clb=4.8m/s t=-50.1C h=-1.0% p=-1.0hPa 404.010 MHz Type=DFM17 ser=22037099 Radiosonde
W4DEX-14D220370992022-12-07 00:48:0637.1073-78.89148916931299Clb=7.5m/s Type=DFM17 ser=[BC]22037099 Details on http://radiosondy.info
W4DEX-14D220370992022-12-07 00:47:4237.1067-78.89928816731197Clb=8.1m/s Type=DFM17 ser=[BC]22037099 Details on http://radiosondy.info
KG4IFE-1D220370992022-12-07 00:47:3337.1064-78.90347716731154Clb=6.2m/s t=-50.5C h=-1.0% p=-1.0hPa 404.010 MHz Type=DFM17 ser=22037099 Radiosonde
W4DEX-14D220370992022-12-07 00:47:2037.1064-78.9078816931101Clb=5.4m/s Type=DFM17 ser=[BC]22037099 Details on http://radiosondy.info
K4KDR-12D220370992022-12-07 00:47:1237.1062-78.91018516731070Clb=6.9m/s t=-50.8C h=-1.0% p=-1.0hPa 404.010 MHz Type=DFM17 ser=22037099 Radiosonde
W4DEX-14D220370992022-12-07 00:46:5337.1061-78.91488217231008Clb=3.2m/s Type=DFM17 ser=[BC]22037099 Details on http://radiosondy.info
KG4IFE-1D220370992022-12-07 00:46:4337.106-78.91968118930960Clb=7.4m/s t=-50.6C h=-1.0% p=-1.0hPa 404.010 MHz Type=DFM17 ser=22037099 Radiosonde
W4DEX-14D220370992022-12-07 00:46:3137.1058-78.92289317030919Clb=6.2m/s Type=DFM17 ser=[BC]22037099 Details on http://radiosondy.info
W4KZK-14D220370992022-12-07 00:46:2937.1058-78.92558616130895Clb=7.2m/s t=-50.7C h=-1.0% p=-1.0hPa 404.010 MHz Type=DFM17 ser=22037099 Radiosonde
W4DEX-14D220370992022-12-07 00:46:0737.1055-78.93079117230832Clb=5.3m/s Type=DFM17 ser=[BC]22037099 Details on http://radiosondy.info
KG4IFE-1D220370992022-12-07 00:45:5537.1052-78.93598716730782Clb=5.7m/s t=-50.9C h=-1.0% p=-1.0hPa 404.010 MHz Type=DFM17 ser=22037099 Radiosonde
W4DEX-14D220370992022-12-07 00:45:4537.105-78.93878716330749Clb=6.0m/s Type=DFM17 ser=[BC]22037099 Details on http://radiosondy.info
W4KZK-14D220370992022-12-07 00:45:3837.1048-78.94428515230698Clb=4.4m/s t=-51.1C h=-1.0% p=-1.0hPa 404.010 MHz Type=DFM17 ser=22037099 Radiosonde
W4DEX-14D220370992022-12-07 00:45:2137.1046-78.94638516330671Clb=6.3m/s Type=DFM17 ser=[BC]22037099 Details on http://radiosondy.info
KG4IFE-1D220370992022-12-07 00:45:0837.1044-78.95178216130617Clb=4.1m/s t=-50.9C h=-1.0% p=-1.0hPa 404.010 MHz Type=DFM17 ser=22037099 Radiosonde
W4DEX-14D220370992022-12-07 00:44:5937.1043-78.95399415230592Clb=7.3m/s Type=DFM17 ser=[BC]22037099 Details on http://radiosondy.info
W4DEX-14D220370992022-12-07 00:44:3837.1039-78.96098116530516Clb=5.0m/s Type=DFM17 ser=[BC]22037099 Details on http://radiosondy.info
KG4IFE-1D220370992022-12-07 00:44:2237.1032-78.96758016730458Clb=5.5m/s t=-51.7C h=-1.0% p=-1.0hPa 404.010 MHz Type=DFM17 ser=22037099 Radiosonde
W4DEX-14D220370992022-12-07 00:44:1537.1031-78.96858916330440Clb=3.5m/s Type=DFM17 ser=[BC]22037099 Details on http://radiosondy.info
K4KDR-12D220370992022-12-07 00:44:0837.1027-78.97217616730410Clb=5.8m/s t=-52.4C h=-1.0% p=-1.0hPa 404.010 MHz Type=DFM17 ser=22037099 Radiosonde
W4KZK-14D220370992022-12-07 00:44:0037.1021-78.97497217830375Clb=5.6m/s t=-52.5C h=-1.0% p=-1.0hPa 404.010 MHz Type=DFM17 ser=22037099 Radiosonde
W4DEX-14D220370992022-12-07 00:43:5737.1019-78.9767816330359Clb=6.0m/s Type=DFM17 ser=[BC]22037099 Details on http://radiosondy.info
KG4IFE-1D220370992022-12-07 00:43:4537.101-78.98237718330290Clb=3.9m/s t=-52.9C h=-1.0% p=-1.0hPa 404.010 MHz Type=DFM17 ser=22037099 Radiosonde
W4DEX-14D220370992022-12-07 00:43:4237.1009-78.98348414830273Clb=7.9m/s Type=DFM17 ser=[BC]22037099 Details on http://radiosondy.info
W4KZK-14D220370992022-12-07 00:43:2737.1-78.99077917430180Clb=5.3m/s t=-53.6C h=-1.0% p=-1.0hPa 404.010 MHz Type=DFM17 ser=22037099 Radiosonde
KG4IFE-1D220370992022-12-07 00:43:1437.0992-78.99667815430095Clb=7.5m/s t=-54.4C h=-1.0% p=-1.0hPa 404.010 MHz Type=DFM17 ser=22037099 Radiosonde
W4DEX-14D220370992022-12-07 00:43:1237.0991-78.99717513930082Clb=3.9m/s Type=DFM17 ser=[BC]22037099 Details on http://radiosondy.info
K4KDR-12D220370992022-12-07 00:43:0537.0986-79.00097517430031Clb=5.5m/s t=-54.3C h=-1.0% p=-1.0hPa 404.010 MHz Type=DFM17 ser=22037099 Radiosonde
W4DEX-14D220370992022-12-07 00:42:5737.0981-79.00327913029986Clb=8.0m/s Type=DFM17 ser=[BC]22037099 Details on http://radiosondy.info
W4KZK-14D220370992022-12-07 00:42:5437.0977-79.00558013529960Clb=6.7m/s t=-54.5C h=-1.0% p=-1.0hPa 404.010 MHz Type=DFM17 ser=22037099 Radiosonde
W4DEX-14D220370992022-12-07 00:42:4337.0969-79.00918511529882Clb=5.7m/s Type=DFM17 ser=[BC]22037099 Details on http://radiosondy.info
W4DEX-14D220370992022-12-07 00:42:3037.0961-79.01437911929776Clb=6.3m/s Type=DFM17 ser=[BC]22037099 Details on http://radiosondy.info
W4KZK-14D220370992022-12-07 00:42:2437.0958-79.01698811529734Clb=8.6m/s t=-54.6C h=-1.0% p=-1.0hPa 404.010 MHz Type=DFM17 ser=22037099 Radiosonde
KG4IFE-1D220370992022-12-07 00:42:1437.0956-79.02028810729667Clb=8.0m/s t=-54.6C h=-1.0% p=-1.0hPa 404.010 MHz Type=DFM17 ser=22037099 Radiosonde
W4DEX-14D220370992022-12-07 00:42:1337.0956-79.01988912029667Clb=7.9m/s Type=DFM17 ser=[BC]22037099 Details on http://radiosondy.info
K4KDR-12D220370992022-12-07 00:42:0437.0955-79.02318410429610Clb=5.9m/s t=-54.6C h=-1.0% p=-1.0hPa 404.010 MHz Type=DFM17 ser=22037099 Radiosonde
W4DEX-14D220370992022-12-07 00:41:5737.0953-79.02549411929563Clb=8.2m/s Type=DFM17 ser=[BC]22037099 Details on http://radiosondy.info
W4DEX-14D220370992022-12-07 00:41:5637.0953-79.0318011729464Clb=4.5m/s Type=DFM17 ser=[BC]22037099 Details on http://radiosondy.info
W4DEX-14D220370992022-12-07 00:41:5537.095-79.03638510729367Clb=4.3m/s Type=DFM17 ser=[BC]22037099 Details on http://radiosondy.info
W4DEX-14D220370992022-12-07 00:41:5437.0946-79.04138411129271Clb=5.9m/s Type=DFM17 ser=[BC]22037099 Details on http://radiosondy.info
K4KDR-12D220370992022-12-07 00:41:5237.0944-79.04488412229216Clb=5.5m/s t=-54.9C h=-1.0% p=-1.0hPa 404.010 MHz Type=DFM17 ser=22037099 Radiosonde
W4DEX-14D220370992022-12-07 00:41:5137.0942-79.04647810429179Clb=5.9m/s Type=DFM17 ser=[BC]22037099 Details on http://radiosondy.info
W4KZK-14D220370992022-12-07 00:41:4737.0938-79.0515899629090Clb=6.5m/s t=-55.2C h=-1.0% p=-1.0hPa 404.010 MHz Type=DFM17 ser=22037099 Radiosonde
KG4IFE-1D220370992022-12-07 00:41:4637.0937-79.05258311529071Clb=4.3m/s t=-55.3C h=-1.0% p=-1.0hPa 404.010 MHz Type=DFM17 ser=22037099 Radiosonde
W4DEX-14D220370992022-12-07 00:41:4337.0933-79.05598611729001Clb=7.2m/s Type=DFM17 ser=[BC]22037099 Details on http://radiosondy.info
W4DEX-14D220370992022-12-07 00:41:3937.0924-79.06097110628910Clb=5.4m/s Type=DFM17 ser=[BC]22037099 Details on http://radiosondy.info
W4KZK-14D220370992022-12-07 00:41:3837.0923-79.06218611928889Clb=6.7m/s t=-55.6C h=-1.0% p=-1.0hPa 404.010 MHz Type=DFM17 ser=22037099 Radiosonde
K4KDR-12D220370992022-12-07 00:41:3437.0914-79.0659777428818Clb=7.6m/s t=-55.9C h=-1.0% p=-1.0hPa 404.010 MHz Type=DFM17 ser=22037099 Radiosonde
W4DEX-14D220370992022-12-07 00:41:3337.0903-79.06997810628726Clb=6.2m/s Type=DFM17 ser=[BC]22037099 Details on http://radiosondy.info
W4DEX-14D220370992022-12-07 00:41:3237.089-79.0791939828529Clb=6.5m/s Type=DFM17 ser=[BC]22037099 Details on http://radiosondy.info
K4KDR-12D220370992022-12-07 00:41:3137.0886-79.0827868728455Clb=6.6m/s t=-56.6C h=-1.0% p=-1.0hPa 404.010 MHz Type=DFM17 ser=22037099 Radiosonde
W4DEX-14D220370992022-12-07 00:41:3037.0882-79.0878917828326Clb=6.2m/s Type=DFM17 ser=[BC]22037099 Details on http://radiosondy.info
W4KZK-14D220370992022-12-07 00:41:2937.0879-79.0909836528243Clb=5.8m/s t=-56.3C h=-1.0% p=-1.0hPa 404.010 MHz Type=DFM17 ser=22037099 Radiosonde
W4DEX-14D220370992022-12-07 00:41:2837.0876-79.0955909128120Clb=5.9m/s Type=DFM17 ser=[BC]22037099 Details on http://radiosondy.info
K4KDR-12D220370992022-12-07 00:41:2737.0875-79.0997958128025Clb=5.4m/s t=-56.7C h=-1.0% p=-1.0hPa 404.010 MHz Type=DFM17 ser=22037099 Radiosonde
W4DEX-14D220370992022-12-07 00:41:2637.0872-79.1034727827922Clb=7.4m/s Type=DFM17 ser=[BC]22037099 Details on http://radiosondy.info
W4KZK-14D220370992022-12-07 00:41:2537.0864-79.1077837427804Clb=7.4m/s t=-56.1C h=-1.0% p=-1.0hPa 404.010 MHz Type=DFM17 ser=22037099 Radiosonde
KG4IFE-1D220370992022-12-07 00:41:2437.0854-79.1135839827656Clb=4.3m/s t=-55.6C h=-1.0% p=-1.0hPa 404.010 MHz Type=DFM17 ser=22037099 Radiosonde
W4DEX-14D220370992022-12-07 00:41:2337.0844-79.1179588727544Clb=4.1m/s Type=DFM17 ser=[BC]22037099 Details on http://radiosondy.info
W4DEX-14D220370992022-12-07 00:41:2237.0836-79.1217658927453Clb=8.2m/s Type=DFM17 ser=[BC]22037099 Details on http://radiosondy.info
W4DEX-14D220370992022-12-07 00:41:1737.0825-79.1256698527361Clb=5.4m/s Type=DFM17 ser=[BC]22037099 Details on http://radiosondy.info
KG4IFE-1D220370992022-12-07 00:41:0337.0811-79.1288817627281Clb=7.6m/s t=-56.1C h=-1.0% p=-1.0hPa 404.010 MHz Type=DFM17 ser=22037099 Radiosonde
K4KDR-12D220370992022-12-07 00:41:0137.081-79.1291754127267Clb=6.2m/s t=-56.2C h=-1.0% p=-1.0hPa 404.010 MHz Type=DFM17 ser=22037099 Radiosonde
W4DEX-14D220370992022-12-07 00:40:5937.081-79.129766927267Clb=6.2m/s Type=DFM17 ser=[BC]22037099 Details on http://radiosondy.info
W4KZK-14D220370992022-12-07 00:40:4237.08-79.1316667427189Clb=5.4m/s t=-56.6C h=-1.0% p=-1.0hPa 404.010 MHz Type=DFM17 ser=22037099 Radiosonde
W4DEX-14D220370992022-12-07 00:40:3737.0799-79.1318846327176Clb=6.9m/s Type=DFM17 ser=[BC]22037099 Details on http://radiosondy.info
KG4IFE-1D220370992022-12-07 00:40:1437.0794-79.1347958527088Clb=7.6m/s t=-56.4C h=-1.0% p=-1.0hPa 404.010 MHz Type=DFM17 ser=22037099 Radiosonde
W4DEX-14D220370992022-12-07 00:40:1237.0794-79.1347896927082Clb=3.0m/s Type=DFM17 ser=[BC]22037099 Details on http://radiosondy.info
W4DEX-14D220370992022-12-07 00:39:5137.0789-79.1377706326986Clb=5.9m/s Type=DFM17 ser=[BC]22037099 Details on http://radiosondy.info
W4KZK-14D220370992022-12-07 00:39:5037.0789-79.1381905926975Clb=5.5m/s t=-56.2C h=-1.0% p=-1.0hPa 404.010 MHz Type=DFM17 ser=22037099 Radiosonde
W4DEX-14D220370992022-12-07 00:39:2837.0785-79.1406907826885Clb=6.3m/s Type=DFM17 ser=[BC]22037099 Details on http://radiosondy.info
K4KDR-12D220370992022-12-07 00:39:2737.0785-79.1414787826872Clb=7.3m/s t=-56.1C h=-1.0% p=-1.0hPa 404.010 MHz Type=DFM17 ser=22037099 Radiosonde
W4DEX-14D220370992022-12-07 00:39:0637.0781-79.1441896526785Clb=6.5m/s Type=DFM17 ser=[BC]22037099 Details on http://radiosondy.info
W4KZK-14D220370992022-12-07 00:39:0137.0779-79.145796526757Clb=7.9m/s t=-56.4C h=-1.0% p=-1.0hPa 404.010 MHz Type=DFM17 ser=22037099 Radiosonde
W4DEX-14D220370992022-12-07 00:38:4337.0775-79.147746126684Clb=7.1m/s Type=DFM17 ser=[BC]22037099 Details on http://radiosondy.info
KG4IFE-1D220370992022-12-07 00:38:4137.0774-79.1474627626678Clb=5.0m/s t=-56.7C h=-1.0% p=-1.0hPa 404.010 MHz Type=DFM17 ser=22037099 Radiosonde
W4DEX-14D220370992022-12-07 00:38:2137.0767-79.1496665626590Clb=5.1m/s Type=DFM17 ser=[BC]22037099 Details on http://radiosondy.info
W4KZK-14D220370992022-12-07 00:38:1037.0763-79.1509616726546Clb=6.3m/s t=-56.6C h=-1.0% p=-1.0hPa 404.010 MHz Type=DFM17 ser=22037099 Radiosonde
W4DEX-14D220370992022-12-07 00:37:5537.076-79.152665726494Clb=7.2m/s Type=DFM17 ser=[BC]22037099 Details on http://radiosondy.info
K4KDR-12D220370992022-12-07 00:37:5337.0759-79.1525846326480Clb=5.1m/s t=-56.6C h=-1.0% p=-1.0hPa 404.010 MHz Type=DFM17 ser=22037099 Radiosonde
KG4IFE-1D220370992022-12-07 00:37:5237.0759-79.1525846326480Clb=5.1m/s t=-56.6C h=-1.0% p=-1.0hPa 404.010 MHz Type=DFM17 ser=22037099 Radiosonde
W4DEX-14D220370992022-12-07 00:37:3137.0752-79.1545565626400Clb=6.8m/s Type=DFM17 ser=[BC]22037099 Details on http://radiosondy.info
W4KZK-14D220370992022-12-07 00:37:1537.0747-79.1564695726332Clb=7.1m/s t=-56.2C h=-1.0% p=-1.0hPa 404.010 MHz Type=DFM17 ser=22037099 Radiosonde
W4DEX-14D220370992022-12-07 00:37:0437.0745-79.1569715226306Clb=6.4m/s Type=DFM17 ser=[BC]22037099 Details on http://radiosondy.info
KG4IFE-1D220370992022-12-07 00:36:5937.0744-79.1574656126287Clb=6.7m/s t=-56.1C h=-1.0% p=-1.0hPa 404.010 MHz Type=DFM17 ser=22037099 Radiosonde
W4DEX-14D220370992022-12-07 00:36:4037.0739-79.1592815626216Clb=4.6m/s Type=DFM17 ser=[BC]22037099 Details on http://radiosondy.info
W4KZK-14D220370992022-12-07 00:36:1937.0733-79.1614965026139Clb=5.3m/s t=-55.8C h=-1.0% p=-1.0hPa 404.010 MHz Type=DFM17 ser=22037099 Radiosonde
W4DEX-14D220370992022-12-07 00:36:1437.0733-79.1616895626130Clb=6.4m/s Type=DFM17 ser=[BC]22037099 Details on http://radiosondy.info
KG4IFE-1D220370992022-12-07 00:36:0737.073-79.1626794126100Clb=6.4m/s t=-55.8C h=-1.0% p=-1.0hPa 404.010 MHz Type=DFM17 ser=22037099 Radiosonde
W4DEX-14D220370992022-12-07 00:35:5137.0728-79.1641755426042Clb=6.6m/s Type=DFM17 ser=[BC]22037099 Details on http://radiosondy.info
W4DEX-14D220370992022-12-07 00:35:2537.0722-79.1665706325960Clb=5.5m/s Type=DFM17 ser=[BC]22037099 Details on http://radiosondy.info
W4KZK-14D220370992022-12-07 00:35:2437.0721-79.1669767225955Clb=5.1m/s t=-55.9C h=-1.0% p=-1.0hPa 404.010 MHz Type=DFM17 ser=22037099 Radiosonde
KG4IFE-1D220370992022-12-07 00:35:1737.0719-79.1681615225925Clb=4.2m/s t=-55.9C h=-1.0% p=-1.0hPa 404.010 MHz Type=DFM17 ser=22037099 Radiosonde
W4DEX-14D220370992022-12-07 00:35:0437.0717-79.1694796925885Clb=3.8m/s Type=DFM17 ser=[BC]22037099 Details on http://radiosondy.info
W4DEX-14D220370992022-12-07 00:34:3937.0709-79.1723597025811Clb=5.7m/s Type=DFM17 ser=[BC]22037099 Details on http://radiosondy.info
W4KZK-14D220370992022-12-07 00:34:3437.0707-79.1736729625786Clb=5.5m/s t=-56.5C h=-1.0% p=-1.0hPa 404.010 MHz Type=DFM17 ser=22037099 Radiosonde
KG4IFE-1D220370992022-12-07 00:34:3037.0705-79.1741608025777Clb=3.9m/s t=-56.7C h=-1.0% p=-1.0hPa 404.010 MHz Type=DFM17 ser=22037099 Radiosonde
W4DEX-14D220370992022-12-07 00:34:1637.0702-79.1755657425739Clb=3.7m/s Type=DFM17 ser=[BC]22037099 Details on http://radiosondy.info
W4DEX-14D220370992022-12-07 00:33:5137.0697-79.1788757225664Clb=4.4m/s Type=DFM17 ser=[BC]22037099 Details on http://radiosondy.info
W4KZK-14D220370992022-12-07 00:33:3937.0692-79.1804798325625Clb=4.9m/s t=-57.7C h=-1.0% p=-1.0hPa 404.010 MHz Type=DFM17 ser=22037099 Radiosonde
KG4IFE-1D220370992022-12-07 00:33:3737.0692-79.1806808725621Clb=4.6m/s t=-57.8C h=-1.0% p=-1.0hPa 404.010 MHz Type=DFM17 ser=22037099 Radiosonde
W4DEX-14D220370992022-12-07 00:33:2537.0689-79.182607225584Clb=4.8m/s Type=DFM17 ser=[BC]22037099 Details on http://radiosondy.info
W4DEX-14D220370992022-12-07 00:32:5937.068-79.185746125497Clb=6.3m/s Type=DFM17 ser=[BC]22037099 Details on http://radiosondy.info
K4KDR-12D220370992022-12-07 00:32:5137.0675-79.1863515225461Clb=6.9m/s t=-58.8C h=-1.0% p=-1.0hPa 404.010 MHz Type=DFM17 ser=22037099 Radiosonde
KG4IFE-1D220370992022-12-07 00:32:4537.0673-79.1867665025442Clb=6.3m/s t=-58.8C h=-1.0% p=-1.0hPa 404.010 MHz Type=DFM17 ser=22037099 Radiosonde
W4KZK-14D220370992022-12-07 00:32:4237.0672-79.1868646125436Clb=6.5m/s t=-58.8C h=-1.0% p=-1.0hPa 404.010 MHz Type=DFM17 ser=22037099 Radiosonde
W4DEX-14D220370992022-12-07 00:32:3337.067-79.1875566125407Clb=5.6m/s Type=DFM17 ser=[BC]22037099 Details on http://radiosondy.info
W4DEX-14D220370992022-12-07 00:32:0337.0661-79.1901896925319Clb=6.4m/s Type=DFM17 ser=[BC]22037099 Details on http://radiosondy.info
KG4IFE-1D220370992022-12-07 00:31:4737.0658-79.1923895925255Clb=8.2m/s t=-59.2C h=-1.0% p=-1.0hPa 404.010 MHz Type=DFM17 ser=22037099 Radiosonde
W4KZK-14D220370992022-12-07 00:31:4137.0658-79.193868525235Clb=7.4m/s t=-59.3C h=-1.0% p=-1.0hPa 404.010 MHz Type=DFM17 ser=22037099 Radiosonde
W4DEX-14D220370992022-12-07 00:31:3837.0657-79.1933696725222Clb=4.5m/s Type=DFM17 ser=[BC]22037099 Details on http://radiosondy.info
W4DEX-14D220370992022-12-07 00:31:1237.0653-79.1962645625126Clb=6.6m/s Type=DFM17 ser=[BC]22037099 Details on http://radiosondy.info
K4KDR-12D220370992022-12-07 00:31:0337.0651-79.1977715925074Clb=6.4m/s t=-60.7C h=-1.0% p=-1.0hPa 404.010 MHz Type=DFM17 ser=22037099 Radiosonde
KG4IFE-1D220370992022-12-07 00:30:5537.065-79.1982874625054Clb=6.3m/s t=-60.7C h=-1.0% p=-1.0hPa 404.010 MHz Type=DFM17 ser=22037099 Radiosonde
W4DEX-14D220370992022-12-07 00:30:4837.065-79.1988807025028Clb=7.1m/s Type=DFM17 ser=[BC]22037099 Details on http://radiosondy.info
W4KZK-14D220370992022-12-07 00:30:4737.065-79.2003855724989Clb=7.6m/s t=-61.0C h=-1.0% p=-1.0hPa 404.010 MHz Type=DFM17 ser=22037099 Radiosonde
W4DEX-14D220370992022-12-07 00:30:2437.0649-79.2021746524933Clb=5.9m/s Type=DFM17 ser=[BC]22037099 Details on http://radiosondy.info
KG4IFE-1D220370992022-12-07 00:30:0337.0648-79.2047835624858Clb=7.4m/s t=-61.0C h=-1.0% p=-1.0hPa 404.010 MHz Type=DFM17 ser=22037099 Radiosonde
W4DEX-14D220370992022-12-07 00:30:0237.0648-79.205855624840Clb=7.3m/s Type=DFM17 ser=[BC]22037099 Details on http://radiosondy.info
W4KZK-14D220370992022-12-07 00:29:5337.0648-79.2069745424776Clb=7.1m/s t=-61.3C h=-1.0% p=-1.0hPa 404.019 MHz Type=DFM17 ser=22037099 Radiosonde
W4DEX-14D220370992022-12-07 00:29:3337.0647-79.20751084424748Clb=4.5m/s Type=DFM17 ser=[BC]22037099 Details on http://radiosondy.info
KG4IFE-1D220370992022-12-07 00:29:1137.0647-79.20941233924672Clb=6.3m/s t=-61.2C h=-1.0% p=-1.0hPa 404.010 MHz Type=DFM17 ser=22037099 Radiosonde
W4DEX-14D220370992022-12-07 00:29:0737.0648-79.20951014424663Clb=6.6m/s Type=DFM17 ser=[BC]22037099 Details on http://radiosondy.info
W4KZK-14D220370992022-12-07 00:28:5737.0648-79.2108863324613Clb=3.9m/s t=-61.7C h=-1.0% p=-1.0hPa 404.010 MHz Type=DFM17 ser=22037099 Radiosonde
W4DEX-14D220370992022-12-07 00:28:4237.0649-79.2115865624582Clb=6.8m/s Type=DFM17 ser=[BC]22037099 Details on http://radiosondy.info
KG4IFE-1D220370992022-12-07 00:28:1937.065-79.2142905424504Clb=5.7m/s t=-61.6C h=-1.0% p=-1.0hPa 404.010 MHz Type=DFM17 ser=22037099 Radiosonde
W4DEX-14D220370992022-12-07 00:28:1837.065-79.2141975424504Clb=5.7m/s Type=DFM17 ser=[BC]22037099 Details on http://radiosondy.info
W4KZK-14D220370992022-12-07 00:28:0337.0648-79.2159925024452Clb=6.0m/s t=-61.5C h=-1.0% p=-1.0hPa 404.010 MHz Type=DFM17 ser=22037099 Radiosonde
W4DEX-14D220370992022-12-07 00:27:5737.0649-79.2165795724426Clb=4.9m/s Type=DFM17 ser=[BC]22037099 Details on http://radiosondy.info
K4KDR-12D220370992022-12-07 00:27:4937.0647-79.2181926124386Clb=6.3m/s t=-61.4C h=-1.0% p=-1.0hPa 404.010 MHz Type=DFM17 ser=22037099 Radiosonde
KG4IFE-1D220370992022-12-07 00:27:4337.0542-79.2532672622943Clb=5.2m/s t=-63.9C h=-1.0% p=-1.0hPa 404.010 MHz Type=DFM17 ser=22037099 Radiosonde
W4DEX-14D220370992022-12-07 00:27:4237.0542-79.2536892822913Clb=3.4m/s Type=DFM17 ser=[BC]22037099 Details on http://radiosondy.info
W4DEX-14D220370992022-12-07 00:27:4137.0543-79.25481053122849Clb=5.3m/s Type=DFM17 ser=[BC]22037099 Details on http://radiosondy.info
KG4IFE-1D220370992022-12-07 00:27:4037.0544-79.25561272622814Clb=4.2m/s t=-64.1C h=-1.0% p=-1.0hPa 404.010 MHz Type=DFM17 ser=22037099 Radiosonde
W4DEX-14D220370992022-12-07 00:27:3137.0546-79.25621243922786Clb=4.9m/s Type=DFM17 ser=[BC]22037099 Details on http://radiosondy.info
W4DEX-14D220370992022-12-07 00:27:1337.055-79.25781105422723Clb=5.2m/s Type=DFM17 ser=[BC]22037099 Details on http://radiosondy.info
W4KZK-14D220370992022-12-07 00:27:0437.0553-79.2594885622685Clb=3.5m/s t=-64.9C h=-1.0% p=-1.0hPa 404.010 MHz Type=DFM17 ser=22037099 Radiosonde
W4DEX-14D220370992022-12-07 00:27:0137.0554-79.2603765222659Clb=4.3m/s Type=DFM17 ser=[BC]22037099 Details on http://radiosondy.info
W4DEX-14D220370992022-12-07 00:27:0037.0555-79.2627875722591Clb=4.5m/s Type=DFM17 ser=[BC]22037099 Details on http://radiosondy.info
W4KZK-14D220370992022-12-07 00:26:5937.0554-79.2649656522527Clb=5.7m/s t=-64.5C h=-1.0% p=-1.0hPa 404.010 MHz Type=DFM17 ser=22037099 Radiosonde
KG4IFE-1D220370992022-12-07 00:26:5837.0542-79.2702777022368Clb=5.2m/s t=-64.5C h=-1.0% p=-1.0hPa 404.010 MHz Type=DFM17 ser=22037099 Radiosonde
W4DEX-14D220370992022-12-07 00:26:5737.0535-79.273664822254Clb=5.2m/s Type=DFM17 ser=[BC]22037099 Details on http://radiosondy.info
KG4IFE-1D220370992022-12-07 00:26:5137.0531-79.2751874322174Clb=6.8m/s t=-63.9C h=-1.0% p=-1.0hPa 404.010 MHz Type=DFM17 ser=22037099 Radiosonde
W4DEX-14D220370992022-12-07 00:26:4737.0531-79.2752883922163Clb=5.8m/s Type=DFM17 ser=[BC]22037099 Details on http://radiosondy.info
W4KZK-14D220370992022-12-07 00:26:4437.053-79.2757754822145Clb=5.9m/s t=-63.9C h=-1.0% p=-1.0hPa 404.010 MHz Type=DFM17 ser=22037099 Radiosonde
W4DEX-14D220370992022-12-07 00:26:2637.0528-79.2769853122069Clb=3.9m/s Type=DFM17 ser=[BC]22037099 Details on http://radiosondy.info
KG4IFE-1D220370992022-12-07 00:26:0137.0527-79.2783723521993Clb=6.2m/s t=-63.2C h=-1.0% p=-1.0hPa 404.010 MHz Type=DFM17 ser=22037099 Radiosonde
W4DEX-14D220370992022-12-07 00:25:5837.0527-79.2784802821982Clb=7.3m/s Type=DFM17 ser=[BC]22037099 Details on http://radiosondy.info
W4KZK-14D220370992022-12-07 00:25:4937.0527-79.279613021946Clb=4.5m/s t=-62.9C h=-1.0% p=-1.0hPa 404.010 MHz Type=DFM17 ser=22037099 Radiosonde
W4DEX-14D220370992022-12-07 00:25:3537.0527-79.27971062821894Clb=4.8m/s Type=DFM17 ser=[BC]22037099 Details on http://radiosondy.info
W4DEX-14D220370992022-12-07 00:25:0837.0528-79.28091083021810Clb=6.9m/s Type=DFM17 ser=[BC]22037099 Details on http://radiosondy.info
W4KZK-14D220370992022-12-07 00:24:5637.0529-79.2819812421760Clb=5.2m/s t=-62.3C h=-1.0% p=-1.0hPa 404.010 MHz Type=DFM17 ser=22037099 Radiosonde
W4DEX-14D220370992022-12-07 00:24:4537.0531-79.28231083521727Clb=4.8m/s Type=DFM17 ser=[BC]22037099 Details on http://radiosondy.info
W4DEX-14D220370992022-12-07 00:24:1837.0535-79.28381183521647Clb=3.9m/s Type=DFM17 ser=[BC]22037099 Details on http://radiosondy.info
KG4IFE-1D220370992022-12-07 00:24:1737.0536-79.28391002821642Clb=6.7m/s t=-62.6C h=-1.0% p=-1.0hPa 404.010 MHz Type=DFM17 ser=22037099 Radiosonde
W4KZK-14D220370992022-12-07 00:23:5737.0539-79.28511253721587Clb=4.8m/s t=-62.6C h=-1.0% p=-1.0hPa 404.010 MHz Type=DFM17 ser=22037099 Radiosonde
W4DEX-14D220370992022-12-07 00:23:5337.054-79.28531203321575Clb=4.5m/s Type=DFM17 ser=[BC]22037099 Details on http://radiosondy.info
W4DEX-14D220370992022-12-07 00:23:2537.0543-79.2867832621505Clb=5.1m/s Type=DFM17 ser=[BC]22037099 Details on http://radiosondy.info
KG4IFE-1D220370992022-12-07 00:23:2337.0543-79.2871031721493Clb=4.7m/s t=-63.4C h=-1.0% p=-1.0hPa 404.010 MHz Type=DFM17 ser=22037099 Radiosonde
W4DEX-14D220370992022-12-07 00:22:5937.0545-79.28781123521441Clb=3.6m/s Type=DFM17 ser=[BC]22037099 Details on http://radiosondy.info
W4KZK-14D220370992022-12-07 00:22:5837.0545-79.2881133721437Clb=4.6m/s t=-63.9C h=-1.0% p=-1.0hPa 404.010 MHz Type=DFM17 ser=22037099 Radiosonde
W4DEX-14D220370992022-12-07 00:22:3137.0548-79.2894993321374Clb=4.1m/s Type=DFM17 ser=[BC]22037099 Details on http://radiosondy.info
KG4IFE-1D220370992022-12-07 00:22:2737.0549-79.28981162421362Clb=4.8m/s t=-64.7C h=-1.0% p=-1.0hPa 404.010 MHz Type=DFM17 ser=22037099 Radiosonde
W4DEX-14D220370992022-12-07 00:22:0637.0549-79.2909982421310Clb=4.7m/s Type=DFM17 ser=[BC]22037099 Details on http://radiosondy.info
W4KZK-14D220370992022-12-07 00:22:0037.0549-79.2912692421299Clb=5.7m/s t=-64.9C h=-1.0% p=-1.0hPa 404.010 MHz Type=DFM17 ser=22037099 Radiosonde
W4DEX-14D220370992022-12-07 00:21:3937.0549-79.2919912021246Clb=5.0m/s Type=DFM17 ser=[BC]22037099 Details on http://radiosondy.info
KG4IFE-1D220370992022-12-07 00:21:3437.0548-79.2923881721229Clb=6.0m/s t=-65.4C h=-1.0% p=-1.0hPa 404.010 MHz Type=DFM17 ser=22037099 Radiosonde
W4DEX-14D220370992022-12-07 00:21:1537.0547-79.2929902021177Clb=3.9m/s Type=DFM17 ser=[BC]22037099 Details on http://radiosondy.info
W4KZK-14D220370992022-12-07 00:21:0537.0546-79.2934892621144Clb=5.4m/s t=-64.9C h=-1.0% p=-1.0hPa 404.010 MHz Type=DFM17 ser=22037099 Radiosonde
W4DEX-14D220370992022-12-07 00:20:4837.0546-79.2938902221106Clb=4.9m/s Type=DFM17 ser=[BC]22037099 Details on http://radiosondy.info
KG4IFE-1D220370992022-12-07 00:20:4237.0546-79.29421052421082Clb=4.2m/s t=-64.6C h=-1.0% p=-1.0hPa 404.010 MHz Type=DFM17 ser=22037099 Radiosonde
W4DEX-14D220370992022-12-07 00:20:2537.0547-79.29481113021032Clb=6.4m/s Type=DFM17 ser=[BC]22037099 Details on http://radiosondy.info
W4KZK-14D220370992022-12-07 00:20:1037.0547-79.29581232220983Clb=5.4m/s t=-64.2C h=-1.0% p=-1.0hPa 404.010 MHz Type=DFM17 ser=22037099 Radiosonde
W4DEX-14D220370992022-12-07 00:19:5737.0548-79.2961863320958Clb=5.7m/s Type=DFM17 ser=[BC]22037099 Details on http://radiosondy.info
KG4IFE-1D220370992022-12-07 00:19:4837.0549-79.29681103320928Clb=6.1m/s t=-64.1C h=-1.0% p=-1.0hPa 404.010 MHz Type=DFM17 ser=22037099 Radiosonde
W4DEX-14D220370992022-12-07 00:19:3337.055-79.2976883120883Clb=5.3m/s Type=DFM17 ser=[BC]22037099 Details on http://radiosondy.info
W4KZK-14D220370992022-12-07 00:19:1237.0549-79.299992220822Clb=5.3m/s t=-63.9C h=-1.0% p=-1.0hPa 404.010 MHz Type=DFM17 ser=22037099 Radiosonde
W4DEX-14D220370992022-12-07 00:19:0637.0549-79.2991052620812Clb=4.5m/s Type=DFM17 ser=[BC]22037099 Details on http://radiosondy.info
KG4IFE-1D220370992022-12-07 00:18:5637.0548-79.2998631520771Clb=5.7m/s t=-63.7C h=-1.0% p=-1.0hPa 404.010 MHz Type=DFM17 ser=22037099 Radiosonde
W4DEX-14D220370992022-12-07 00:18:4237.0549-79.3001632220736Clb=6.0m/s Type=DFM17 ser=[BC]22037099 Details on http://radiosondy.info
W4DEX-14D220370992022-12-07 00:18:1537.0547-79.301892420660Clb=5.9m/s Type=DFM17 ser=[BC]22037099 Details on http://radiosondy.info
W4KZK-14D220370992022-12-07 00:18:1437.0547-79.30121103120654Clb=5.5m/s t=-63.4C h=-1.0% p=-1.0hPa 404.010 MHz Type=DFM17 ser=22037099 Radiosonde
KG4IFE-1D220370992022-12-07 00:18:0237.0547-79.3015662620621Clb=5.1m/s t=-63.4C h=-1.0% p=-1.0hPa 404.010 MHz Type=DFM17 ser=22037099 Radiosonde
W4DEX-14D220370992022-12-07 00:17:4937.0547-79.302722220584Clb=4.9m/s Type=DFM17 ser=[BC]22037099 Details on http://radiosondy.info
W4DEX-14D220370992022-12-07 00:17:2237.0546-79.3031041920502Clb=5.0m/s Type=DFM17 ser=[BC]22037099 Details on http://radiosondy.info
W4KZK-14D220370992022-12-07 00:17:1637.0546-79.3032793120481Clb=5.4m/s t=-64.0C h=-1.0% p=-1.0hPa 404.010 MHz Type=DFM17 ser=22037099 Radiosonde
KG4IFE-1D220370992022-12-07 00:17:0637.0547-79.3036831320455Clb=5.1m/s t=-64.1C h=-1.0% p=-1.0hPa 404.010 MHz Type=DFM17 ser=22037099 Radiosonde
W4DEX-14D220370992022-12-07 00:16:5537.0547-79.3038822020424Clb=6.4m/s Type=DFM17 ser=[BC]22037099 Details on http://radiosondy.info
W4DEX-14D220370992022-12-07 00:16:3037.0548-79.3047782020346Clb=5.9m/s Type=DFM17 ser=[BC]22037099 Details on http://radiosondy.info
W4KZK-14D220370992022-12-07 00:16:1737.0548-79.3051953020311Clb=5.1m/s t=-65.0C h=-1.0% p=-1.0hPa 404.010 MHz Type=DFM17 ser=22037099 Radiosonde
KG4IFE-1D220370992022-12-07 00:16:1137.0547-79.30541051720295Clb=4.8m/s t=-65.0C h=-1.0% p=-1.0hPa 404.010 MHz Type=DFM17 ser=22037099 Radiosonde
W4DEX-14D220370992022-12-07 00:16:0437.0549-79.30551372220268Clb=5.6m/s Type=DFM17 ser=[BC]22037099 Details on http://radiosondy.info
W4DEX-14D220370992022-12-07 00:15:3937.0551-79.3065791920189Clb=5.4m/s Type=DFM17 ser=[BC]22037099 Details on http://radiosondy.info
W4KZK-14D220370992022-12-07 00:15:2237.0552-79.3069891120137Clb=5.5m/s t=-65.4C h=-1.0% p=-1.0hPa 404.010 MHz Type=DFM17 ser=22037099 Radiosonde
KG4IFE-1D220370992022-12-07 00:15:2037.0552-79.3072832420123Clb=4.9m/s t=-65.5C h=-1.0% p=-1.0hPa 404.010 MHz Type=DFM17 ser=22037099 Radiosonde
W4DEX-14D220370992022-12-07 00:15:1537.0552-79.3072701920112Clb=4.8m/s Type=DFM17 ser=[BC]22037099 Details on http://radiosondy.info
W4DEX-14D220370992022-12-07 00:14:4837.0551-79.308782020035Clb=4.5m/s Type=DFM17 ser=[BC]22037099 Details on http://radiosondy.info
KG4IFE-1D220370992022-12-07 00:14:2737.055-79.30891002019971Clb=5.2m/s t=-65.3C h=-1.0% p=-1.0hPa 404.010 MHz Type=DFM17 ser=22037099 Radiosonde
W4KZK-14D220370992022-12-07 00:14:2637.055-79.30891002019971Clb=5.2m/s t=-65.3C h=-1.0% p=-1.0hPa 404.010 MHz Type=DFM17 ser=22037099 Radiosonde
W4DEX-14D220370992022-12-07 00:14:2237.055-79.3091062619960Clb=4.6m/s Type=DFM17 ser=[BC]22037099 Details on http://radiosondy.info
W4DEX-14D220370992022-12-07 00:13:5637.0553-79.31011062019886Clb=4.1m/s Type=DFM17 ser=[BC]22037099 Details on http://radiosondy.info
KG4IFE-1D220370992022-12-07 00:13:3437.0556-79.31091103119818Clb=6.8m/s t=-65.8C h=-1.0% p=-1.0hPa 404.010 MHz Type=DFM17 ser=22037099 Radiosonde
W4DEX-14D220370992022-12-07 00:13:3237.0556-79.31091113519812Clb=4.8m/s Type=DFM17 ser=[BC]22037099 Details on http://radiosondy.info
W4KZK-14D220370992022-12-07 00:13:3037.0556-79.31111153319808Clb=3.4m/s t=-65.9C h=-1.0% p=-1.0hPa 404.010 MHz Type=DFM17 ser=22037099 Radiosonde
W4DEX-14D220370992022-12-07 00:13:0637.056-79.31241093719741Clb=4.5m/s Type=DFM17 ser=[BC]22037099 Details on http://radiosondy.info
W4DEX-14D220370992022-12-07 00:12:1537.0562-79.3168873119530Clb=5.1m/s Type=DFM17 ser=[BC]22037099 Details on http://radiosondy.info
KG4IFE-1D220370992022-12-07 00:12:1437.0562-79.317642619525Clb=5.5m/s t=-66.3C h=-1.0% p=-1.0hPa 404.010 MHz Type=DFM17 ser=22037099 Radiosonde
W4KZK-14D220370992022-12-07 00:12:0437.056-79.3174633319497Clb=5.8m/s t=-66.6C h=-1.0% p=-1.0hPa 404.010 MHz Type=DFM17 ser=22037099 Radiosonde
W4DEX-14D220370992022-12-07 00:11:5637.0557-79.318362819456Clb=4.0m/s Type=DFM17 ser=[BC]22037099 Details on http://radiosondy.info
W4DEX-14D220370992022-12-07 00:11:4037.055-79.319542819380Clb=4.1m/s Type=DFM17 ser=[BC]22037099 Details on http://radiosondy.info
KG4IFE-1D220370992022-12-07 00:11:3837.0548-79.3192383119365Clb=4.5m/s t=-66.7C h=-1.0% p=-1.0hPa 404.010 MHz Type=DFM17 ser=22037099 Radiosonde
W4KZK-14D220370992022-12-07 00:11:3537.0544-79.3195293019330Clb=6.3m/s t=-66.5C h=-1.0% p=-1.0hPa 404.010 MHz Type=DFM17 ser=22037099 Radiosonde
W4DEX-14D220370992022-12-07 00:11:2837.0542-79.3197203019304Clb=3.6m/s Type=DFM17 ser=[BC]22037099 Details on http://radiosondy.info
W4DEX-14D220370992022-12-07 00:11:1137.0532-79.32023562619224Clb=4.4m/s Type=DFM17 ser=[BC]22037099 Details on http://radiosondy.info
KG4IFE-1D220370992022-12-07 00:11:0837.053-79.3202192419207Clb=5.8m/s t=-65.6C h=-1.0% p=-1.0hPa 404.010 MHz Type=DFM17 ser=22037099 Radiosonde
W4KZK-14D220370992022-12-07 00:10:5737.0524-79.32071062019144Clb=5.8m/s t=-65.3C h=-1.0% p=-1.0hPa 404.010 MHz Type=DFM17 ser=22037099 Radiosonde
W4DEX-14D220370992022-12-07 00:10:5637.0524-79.32071072619139Clb=5.5m/s Type=DFM17 ser=[BC]22037099 Details on http://radiosondy.info
W4DEX-14D220370992022-12-07 00:10:5137.052-79.32141022819046Clb=2.7m/s Type=DFM17 ser=[BC]22037099 Details on http://radiosondy.info
KG4IFE-1D220370992022-12-07 00:10:5037.052-79.3218924419023Clb=5.8m/s t=-64.8C h=-1.0% p=-1.0hPa 404.010 MHz Type=DFM17 ser=22037099 Radiosonde
W4DEX-14D220370992022-12-07 00:10:4637.052-79.3227713518963Clb=6.0m/s Type=DFM17 ser=[BC]22037099 Details on http://radiosondy.info
W4KZK-14D220370992022-12-07 00:10:4537.052-79.32291061918957Clb=5.8m/s t=-64.8C h=-1.0% p=-1.0hPa 404.010 MHz Type=DFM17 ser=22037099 Radiosonde
W4DEX-14D220370992022-12-07 00:10:4137.0523-79.3242924818881Clb=4.6m/s Type=DFM17 ser=[BC]22037099 Details on http://radiosondy.info
KG4IFE-1D220370992022-12-07 00:10:3937.0525-79.3251075218853Clb=5.6m/s t=-66.5C h=-1.0% p=-1.0hPa 404.010 MHz Type=DFM17 ser=22037099 Radiosonde
W4DEX-14D220370992022-12-07 00:10:2537.0526-79.3265995618797Clb=5.8m/s Type=DFM17 ser=[BC]22037099 Details on http://radiosondy.info
W4KZK-14D220370992022-12-07 00:10:2237.0527-79.3274895918777Clb=5.1m/s t=-66.7C h=-1.0% p=-1.0hPa 404.010 MHz Type=DFM17 ser=22037099 Radiosonde
W4DEX-14D220370992022-12-07 00:10:1137.0527-79.3291775618720Clb=6.2m/s Type=DFM17 ser=[BC]22037099 Details on http://radiosondy.info
KG4IFE-1D220370992022-12-07 00:10:0437.0526-79.3303854818688Clb=6.1m/s t=-67.2C h=-1.0% p=-1.0hPa 404.010 MHz Type=DFM17 ser=22037099 Radiosonde
W4KZK-14D220370992022-12-07 00:10:0137.0523-79.3331845418604Clb=4.8m/s t=-67.7C h=-1.0% p=-1.0hPa 404.010 MHz Type=DFM17 ser=22037099 Radiosonde
W4DEX-14D220370992022-12-07 00:09:5937.0522-79.3338883318569Clb=6.3m/s Type=DFM17 ser=[BC]22037099 Details on http://radiosondy.info
KG4IFE-1D220370992022-12-07 00:09:5737.0521-79.3348833318529Clb=2.6m/s t=-68.0C h=-1.0% p=-1.0hPa 404.010 MHz Type=DFM17 ser=22037099 Radiosonde
W4DEX-14D220370992022-12-07 00:09:5537.0521-79.33541022818496Clb=5.4m/s Type=DFM17 ser=[BC]22037099 Details on http://radiosondy.info
W4KZK-14D220370992022-12-07 00:09:5337.0523-79.3363942018446Clb=4.8m/s t=-69.5C h=-1.0% p=-1.0hPa 404.010 MHz Type=DFM17 ser=22037099 Radiosonde
W4DEX-14D220370992022-12-07 00:09:5237.0523-79.3366773518422Clb=4.5m/s Type=DFM17 ser=[BC]22037099 Details on http://radiosondy.info
KG4IFE-1D220370992022-12-07 00:09:4937.0523-79.3376943918387Clb=5.6m/s t=-69.7C h=-1.0% p=-1.0hPa 404.010 MHz Type=DFM17 ser=22037099 Radiosonde
W4DEX-14D220370992022-12-07 00:09:4837.0524-79.33821143318355Clb=4.0m/s Type=DFM17 ser=[BC]22037099 Details on http://radiosondy.info
KG4IFE-1D220370992022-12-07 00:09:4737.0528-79.3411213518233Clb=4.3m/s t=-69.8C h=-1.0% p=-1.0hPa 404.010 MHz Type=DFM17 ser=22037099 Radiosonde
W4DEX-14D220370992022-12-07 00:09:4637.0535-79.34371236118110Clb=6.3m/s Type=DFM17 ser=[BC]22037099 Details on http://radiosondy.info
KG4IFE-1D220370992022-12-07 00:09:4537.0543-79.34541007218049Clb=5.9m/s t=-69.6C h=-1.0% p=-1.0hPa 404.010 MHz Type=DFM17 ser=22037099 Radiosonde
W4DEX-14D220370992022-12-07 00:09:4437.056-79.34871478317917Clb=3.7m/s Type=DFM17 ser=[BC]22037099 Details on http://radiosondy.info
KG4IFE-1D220370992022-12-07 00:09:4337.0573-79.35141118317842Clb=5.9m/s t=-69.8C h=-1.0% p=-1.0hPa 404.010 MHz Type=DFM17 ser=22037099 Radiosonde
W4KZK-14D220370992022-12-07 00:09:4237.0598-79.359710310717675Clb=4.5m/s t=-71.0C h=-1.0% p=-1.0hPa 404.010 MHz Type=DFM17 ser=22037099 Radiosonde
W4DEX-14D220370992022-12-07 00:09:4137.061-79.366410811517566Clb=5.0m/s Type=DFM17 ser=[BC]22037099 Details on http://radiosondy.info
KG4IFE-1D220370992022-12-07 00:09:4037.0617-79.37169710917493Clb=4.4m/s t=-70.4C h=-1.0% p=-1.0hPa 404.010 MHz Type=DFM17 ser=22037099 Radiosonde
W4DEX-14D220370992022-12-07 00:09:3937.0617-79.37169811117488Clb=6.3m/s Type=DFM17 ser=[BC]22037099 Details on http://radiosondy.info
W4DEX-14D220370992022-12-07 00:09:2637.0622-79.37689711517413Clb=5.7m/s Type=DFM17 ser=[BC]22037099 Details on http://radiosondy.info
W4KZK-14D220370992022-12-07 00:09:0137.0624-79.38218411317339Clb=5.7m/s t=-71.5C h=-1.0% p=-1.0hPa 404.010 MHz Type=DFM17 ser=22037099 Radiosonde
KG4IFE-1D220370992022-12-07 00:09:0037.0624-79.38258611917333Clb=5.6m/s t=-71.6C h=-1.0% p=-1.0hPa 404.010 MHz Type=DFM17 ser=22037099 Radiosonde
W4DEX-14D220370992022-12-07 00:08:5937.0624-79.38218511317333Clb=5.5m/s Type=DFM17 ser=[BC]22037099 Details on http://radiosondy.info
W4DEX-14D220370992022-12-07 00:08:3737.0622-79.38739111517252Clb=6.3m/s Type=DFM17 ser=[BC]22037099 Details on http://radiosondy.info
W4DEX-14D220370992022-12-07 00:08:1137.0622-79.39279411517173Clb=6.2m/s Type=DFM17 ser=[BC]22037099 Details on http://radiosondy.info
W4KZK-14D220370992022-12-07 00:08:0937.0623-79.39419711317157Clb=6.0m/s t=-71.4C h=-1.0% p=-1.0hPa 404.010 MHz Type=DFM17 ser=22037099 Radiosonde
W4DEX-14D220370992022-12-07 00:07:4937.0625-79.39819811317095Clb=4.9m/s Type=DFM17 ser=[BC]22037099 Details on http://radiosondy.info
W4DEX-14D220370992022-12-07 00:07:2237.0629-79.40349511117024Clb=3.7m/s Type=DFM17 ser=[BC]22037099 Details on http://radiosondy.info
KG4IFE-1D220370992022-12-07 00:07:2037.063-79.40489511517010Clb=3.4m/s t=-71.7C h=-1.0% p=-1.0hPa 404.010 MHz Type=DFM17 ser=22037099 Radiosonde
W4KZK-14D220370992022-12-07 00:07:1637.0631-79.40549410017000Clb=3.9m/s t=-71.7C h=-1.0% p=-1.0hPa 404.010 MHz Type=DFM17 ser=22037099 Radiosonde
W4DEX-14D220370992022-12-07 00:06:5837.0634-79.408510110716956Clb=4.4m/s Type=DFM17 ser=[BC]22037099 Details on http://radiosondy.info
W4DEX-14D220370992022-12-07 00:06:3237.064-79.41359810616887Clb=3.5m/s Type=DFM17 ser=[BC]22037099 Details on http://radiosondy.info
KG4IFE-1D220370992022-12-07 00:06:2837.0642-79.4147999316873Clb=3.8m/s t=-71.3C h=-1.0% p=-1.0hPa 404.010 MHz Type=DFM17 ser=22037099 Radiosonde
W4KZK-14D220370992022-12-07 00:06:2037.0644-79.41649610716851Clb=3.5m/s t=-71.2C h=-1.0% p=-1.0hPa 404.010 MHz Type=DFM17 ser=22037099 Radiosonde
W4DEX-14D220370992022-12-07 00:06:0637.0647-79.418310111516818Clb=4.9m/s Type=DFM17 ser=[BC]22037099 Details on http://radiosondy.info
W4DEX-14D220370992022-12-07 00:05:4037.0655-79.42359910916753Clb=4.5m/s Type=DFM17 ser=[BC]22037099 Details on http://radiosondy.info
KG4IFE-1D220370992022-12-07 00:05:3437.0657-79.42539511116733Clb=4.2m/s t=-71.1C h=-1.0% p=-1.0hPa 404.010 MHz Type=DFM17 ser=22037099 Radiosonde
W4KZK-14D220370992022-12-07 00:05:2337.0662-79.427910210216695Clb=5.8m/s t=-71.2C h=-1.0% p=-1.0hPa 404.010 MHz Type=DFM17 ser=22037099 Radiosonde
W4DEX-14D220370992022-12-07 00:05:1637.0663-79.42869910716683Clb=4.8m/s Type=DFM17 ser=[BC]22037099 Details on http://radiosondy.info
W4DEX-14D220370992022-12-07 00:04:5037.0671-79.433510210416613Clb=4.9m/s Type=DFM17 ser=[BC]22037099 Details on http://radiosondy.info
KG4IFE-1D220370992022-12-07 00:04:4337.0674-79.435510110016590Clb=5.2m/s t=-70.8C h=-1.0% p=-1.0hPa 404.010 MHz Type=DFM17 ser=22037099 Radiosonde
W4KZK-14D220370992022-12-07 00:04:3037.0678-79.438210510216548Clb=5.5m/s t=-70.7C h=-1.0% p=-1.0hPa 404.010 MHz Type=DFM17 ser=22037099 Radiosonde
W4DEX-14D220370992022-12-07 00:04:2837.0678-79.438210310216543Clb=3.3m/s Type=DFM17 ser=[BC]22037099 Details on http://radiosondy.info
W4DEX-14D220370992022-12-07 00:04:0237.0684-79.442910310016470Clb=3.7m/s Type=DFM17 ser=[BC]22037099 Details on http://radiosondy.info
KG4IFE-1D220370992022-12-07 00:03:5237.0687-79.44510510216441Clb=4.9m/s t=-70.5C h=-1.0% p=-1.0hPa 404.010 MHz Type=DFM17 ser=22037099 Radiosonde
W4DEX-14D220370992022-12-07 00:03:3937.0691-79.447510010716395Clb=5.4m/s Type=DFM17 ser=[BC]22037099 Details on http://radiosondy.info
W4KZK-14D220370992022-12-07 00:03:3637.0692-79.448510510716385Clb=3.4m/s t=-70.3C h=-1.0% p=-1.0hPa 404.010 MHz Type=DFM17 ser=22037099 Radiosonde
W4DEX-14D220370992022-12-07 00:03:1337.0699-79.452410411716323Clb=5.6m/s Type=DFM17 ser=[BC]22037099 Details on http://radiosondy.info
KG4IFE-1D220370992022-12-07 00:03:0337.0705-79.455210411716289Clb=5.5m/s t=-70.5C h=-1.0% p=-1.0hPa 404.010 MHz Type=DFM17 ser=22037099 Radiosonde
W4DEX-14D220370992022-12-07 00:02:5037.0709-79.45779511316251Clb=5.9m/s Type=DFM17 ser=[BC]22037099 Details on http://radiosondy.info
W4KZK-14D220370992022-12-07 00:02:4437.0712-79.46029710916220Clb=6.0m/s t=-70.5C h=-1.0% p=-1.0hPa 404.010 MHz Type=DFM17 ser=22037099 Radiosonde
W4DEX-14D220370992022-12-07 00:02:2437.0715-79.46299910916177Clb=5.3m/s Type=DFM17 ser=[BC]22037099 Details on http://radiosondy.info
KG4IFE-1D220370992022-12-07 00:02:1237.0718-79.4669710416138Clb=5.2m/s t=-70.4C h=-1.0% p=-1.0hPa 404.010 MHz Type=DFM17 ser=22037099 Radiosonde
W4DEX-14D220370992022-12-07 00:01:5937.0721-79.46810010716103Clb=4.5m/s Type=DFM17 ser=[BC]22037099 Details on http://radiosondy.info
W4KZK-14D220370992022-12-07 00:01:4737.0724-79.471929816061Clb=4.6m/s t=-70.1C h=-1.0% p=-1.0hPa 404.010 MHz Type=DFM17 ser=22037099 Radiosonde
W4DEX-14D220370992022-12-07 00:01:3337.0726-79.47299510616026Clb=5.2m/s Type=DFM17 ser=[BC]22037099 Details on http://radiosondy.info
KG4IFE-1D220370992022-12-07 00:01:1837.0729-79.4765939415980Clb=4.0m/s t=-69.6C h=-1.0% p=-1.0hPa 404.010 MHz Type=DFM17 ser=22037099 Radiosonde
W4DEX-14D220370992022-12-07 00:01:0837.073-79.47789310215956Clb=3.9m/s Type=DFM17 ser=[BC]22037099 Details on http://radiosondy.info
W4KZK-14D220370992022-12-07 00:00:4937.0733-79.4816959815903Clb=4.7m/s t=-69.2C h=-1.0% p=-1.0hPa 404.010 MHz Type=DFM17 ser=22037099 Radiosonde
W4DEX-14D220370992022-12-07 00:00:4037.0733-79.48259810415883Clb=3.9m/s Type=DFM17 ser=[BC]22037099 Details on http://radiosondy.info
KG4IFE-1D220370992022-12-07 00:00:2437.0737-79.48639410215829Clb=4.5m/s t=-68.8C h=-1.0% p=-1.0hPa 404.010 MHz Type=DFM17 ser=22037099 Radiosonde
W4DEX-14D220370992022-12-07 00:00:1637.0738-79.48749510715811Clb=5.8m/s Type=DFM17 ser=[BC]22037099 Details on http://radiosondy.info
W4KZK-14D220370992022-12-06 23:59:5637.0742-79.492310010915745Clb=4.9m/s t=-68.5C h=-1.0% p=-1.0hPa 404.010 MHz Type=DFM17 ser=22037099 Radiosonde
W4DEX-14D220370992022-12-06 23:59:5537.0743-79.492310110715741Clb=3.9m/s Type=DFM17 ser=[BC]22037099 Details on http://radiosondy.info
KG4IFE-1D220370992022-12-06 23:59:4437.0747-79.4979310415682Clb=3.1m/s t=-68.6C h=-1.0% p=-1.0hPa 404.010 MHz Type=DFM17 ser=22037099 Radiosonde
W4DEX-14D220370992022-12-06 23:59:4037.0747-79.49739610915673Clb=5.3m/s Type=DFM17 ser=[BC]22037099 Details on http://radiosondy.info
W4DEX-14D220370992022-12-06 23:59:3937.0754-79.50249610415599Clb=6.2m/s Type=DFM17 ser=[BC]22037099 Details on http://radiosondy.info
KG4IFE-1D220370992022-12-06 23:59:3837.076-79.506910010915531Clb=2.8m/s t=-67.4C h=-1.0% p=-1.0hPa 404.010 MHz Type=DFM17 ser=22037099 Radiosonde
W4DEX-14D220370992022-12-06 23:59:3737.0767-79.5119989815446Clb=5.9m/s Type=DFM17 ser=[BC]22037099 Details on http://radiosondy.info
W4DEX-14D220370992022-12-06 23:59:3637.0779-79.52081039815307Clb=5.4m/s Type=DFM17 ser=[BC]22037099 Details on http://radiosondy.info
W4KZK-14D220370992022-12-06 23:59:3537.0784-79.52371089315260Clb=5.7m/s t=-66.3C h=-1.0% p=-1.0hPa 404.010 MHz Type=DFM17 ser=22037099 Radiosonde
KG4IFE-1D220370992022-12-06 23:59:3437.0789-79.52561099815228Clb=6.5m/s t=-66.1C h=-1.0% p=-1.0hPa 404.010 MHz Type=DFM17 ser=22037099 Radiosonde
W4DEX-14D220370992022-12-06 23:59:3037.0798-79.529910611115150Clb=7.4m/s Type=DFM17 ser=[BC]22037099 Details on http://radiosondy.info
W4DEX-14D220370992022-12-06 23:59:2637.0812-79.534711611515064Clb=5.3m/s Type=DFM17 ser=[BC]22037099 Details on http://radiosondy.info
W4DEX-14D220370992022-12-06 23:59:1037.0828-79.539811312414981Clb=5.2m/s Type=DFM17 ser=[BC]22037099 Details on http://radiosondy.info
W4KZK-14D220370992022-12-06 23:59:0137.0845-79.545910912414902Clb=6.2m/s t=-66.1C h=-1.0% p=-1.0hPa 404.010 MHz Type=DFM17 ser=22037099 Radiosonde
W4DEX-14D220370992022-12-06 23:59:0037.086-79.550611313114833Clb=4.2m/s Type=DFM17 ser=[BC]22037099 Details on http://radiosondy.info
W4DEX-14D220370992022-12-06 23:58:5937.088-79.556211313514761Clb=5.1m/s Type=DFM17 ser=[BC]22037099 Details on http://radiosondy.info
W4DEX-14D220370992022-12-06 23:58:5837.0901-79.561911113314693Clb=4.0m/s Type=DFM17 ser=[BC]22037099 Details on http://radiosondy.info
W4DEX-14D220370992022-12-06 23:58:4937.0919-79.567811313514626Clb=3.2m/s Type=DFM17 ser=[BC]22037099 Details on http://radiosondy.info
KG4IFE-1D220370992022-12-06 23:58:4537.0925-79.569811113014609Clb=4.9m/s t=-65.9C h=-1.0% p=-1.0hPa 404.010 MHz Type=DFM17 ser=22037099 Radiosonde
W4KZK-14D220370992022-12-06 23:58:4337.0928-79.570511213314601Clb=5.0m/s t=-65.9C h=-1.0% p=-1.0hPa 404.010 MHz Type=DFM17 ser=22037099 Radiosonde
W4DEX-14D220370992022-12-06 23:58:2737.0937-79.573711414114560Clb=4.4m/s Type=DFM17 ser=[BC]22037099 Details on http://radiosondy.info
W4DEX-14D220370992022-12-06 23:58:0237.0959-79.579711414314492Clb=6.0m/s Type=DFM17 ser=[BC]22037099 Details on http://radiosondy.info
KG4IFE-1D220370992022-12-06 23:57:5437.0967-79.582111614414469Clb=5.5m/s t=-65.7C h=-1.0% p=-1.0hPa 404.010 MHz Type=DFM17 ser=22037099 Radiosonde
W4KZK-14D220370992022-12-06 23:57:4937.0975-79.584111514114448Clb=5.1m/s t=-65.6C h=-1.0% p=-1.0hPa 404.010 MHz Type=DFM17 ser=22037099 Radiosonde
W4DEX-14D220370992022-12-06 23:57:3737.0981-79.585711314414424Clb=4.9m/s Type=DFM17 ser=[BC]22037099 Details on http://radiosondy.info
W4DEX-14D220370992022-12-06 23:57:0837.1002-79.591911514814355Clb=5.8m/s Type=DFM17 ser=[BC]22037099 Details on http://radiosondy.info
KG4IFE-1D220370992022-12-06 23:56:5937.1013-79.594911215414327Clb=4.0m/s t=-64.8C h=-1.0% p=-1.0hPa 404.010 MHz Type=DFM17 ser=22037099 Radiosonde
W4KZK-14D220370992022-12-06 23:56:4937.1021-79.597511214414300Clb=5.5m/s t=-64.8C h=-1.0% p=-1.0hPa 404.010 MHz Type=DFM17 ser=22037099 Radiosonde
W4DEX-14D220370992022-12-06 23:56:4337.1024-79.598311015014288Clb=5.0m/s Type=DFM17 ser=[BC]22037099 Details on http://radiosondy.info
W4DEX-14D220370992022-12-06 23:56:1737.1045-79.604811215414219Clb=5.6m/s Type=DFM17 ser=[BC]22037099 Details on http://radiosondy.info
KG4IFE-1D220370992022-12-06 23:56:0737.1056-79.608411014614186Clb=5.2m/s t=-65.0C h=-1.0% p=-1.0hPa 404.010 MHz Type=DFM17 ser=22037099 Radiosonde
W4KZK-14D220370992022-12-06 23:55:5437.1066-79.61210915914149Clb=4.1m/s t=-65.2C h=-1.0% p=-1.0hPa 404.010 MHz Type=DFM17 ser=22037099 Radiosonde
W4DEX-14D220370992022-12-06 23:55:5337.1065-79.611611015614149Clb=4.0m/s Type=DFM17 ser=[BC]22037099 Details on http://radiosondy.info
W4DEX-14D220370992022-12-06 23:55:2937.1084-79.618510915614077Clb=4.4m/s Type=DFM17 ser=[BC]22037099 Details on http://radiosondy.info
KG4IFE-1D220370992022-12-06 23:55:1637.1096-79.622511014814040Clb=4.3m/s t=-65.3C h=-1.0% p=-1.0hPa 404.010 MHz Type=DFM17 ser=22037099 Radiosonde
W4DEX-14D220370992022-12-06 23:55:0537.1105-79.625311115914007Clb=4.7m/s Type=DFM17 ser=[BC]22037099 Details on http://radiosondy.info
W4KZK-14D220370992022-12-06 23:55:0137.111-79.627110915013992Clb=5.5m/s t=-65.5C h=-1.0% p=-1.0hPa 404.010 MHz Type=DFM17 ser=22037099 Radiosonde
W4DEX-14D220370992022-12-06 23:54:4337.1125-79.632311016513937Clb=5.3m/s Type=DFM17 ser=[BC]22037099 Details on http://radiosondy.info
KG4IFE-1D220370992022-12-06 23:54:2837.1139-79.637610516313890Clb=5.7m/s t=-65.3C h=-1.0% p=-1.0hPa 404.010 MHz Type=DFM17 ser=22037099 Radiosonde
W4DEX-14D220370992022-12-06 23:54:1937.1144-79.639611016513866Clb=5.9m/s Type=DFM17 ser=[BC]22037099 Details on http://radiosondy.info
W4KZK-14D220370992022-12-06 23:54:1037.1152-79.643110416313838Clb=3.4m/s t=-65.3C h=-1.0% p=-1.0hPa 404.010 MHz Type=DFM17 ser=22037099 Radiosonde
W4DEX-14D220370992022-12-06 23:53:5537.1161-79.64710517013797Clb=5.0m/s Type=DFM17 ser=[BC]22037099 Details on http://radiosondy.info
KG4IFE-1D220370992022-12-06 23:53:3737.1175-79.653210316913745Clb=4.6m/s t=-64.9C h=-1.0% p=-1.0hPa 404.010 MHz Type=DFM17 ser=22037099 Radiosonde
W4DEX-14D220370992022-12-06 23:53:3137.1178-79.654710417213726Clb=3.4m/s Type=DFM17 ser=[BC]22037099 Details on http://radiosondy.info
W4KZK-14D220370992022-12-06 23:53:1737.1188-79.659910217413684Clb=5.2m/s t=-64.7C h=-1.0% p=-1.0hPa 404.010 MHz Type=DFM17 ser=22037099 Radiosonde
W4DEX-14D220370992022-12-06 23:53:0737.1193-79.662610217213656Clb=6.1m/s Type=DFM17 ser=[BC]22037099 Details on http://radiosondy.info
KG4IFE-1D220370992022-12-06 23:52:4737.1206-79.679917013597Clb=4.9m/s t=-64.6C h=-1.0% p=-1.0hPa 404.010 MHz Type=DFM17 ser=22037099 Radiosonde
W4DEX-14D220370992022-12-06 23:52:4137.1207-79.67059917013589Clb=4.9m/s Type=DFM17 ser=[BC]22037099 Details on http://radiosondy.info
W4KZK-14D220370992022-12-06 23:52:2237.1217-79.677310117213533Clb=3.4m/s t=-64.1C h=-1.0% p=-1.0hPa 404.010 MHz Type=DFM17 ser=22037099 Radiosonde
W4DEX-14D220370992022-12-06 23:52:1637.1218-79.67839917013521Clb=5.1m/s Type=DFM17 ser=[BC]22037099 Details on http://radiosondy.info
KG4IFE-1D220370992022-12-06 23:51:5737.1228-79.68579816913465Clb=5.5m/s t=-64.0C h=-1.0% p=-1.0hPa 404.010 MHz Type=DFM17 ser=22037099 Radiosonde
W4DEX-14D220370992022-12-06 23:51:5537.1229-79.68629916513456Clb=5.2m/s Type=DFM17 ser=[BC]22037099 Details on http://radiosondy.info
W4KZK-14D220370992022-12-06 23:51:4137.1241-79.694210015213390Clb=4.1m/s t=-64.3C h=-1.0% p=-1.0hPa 404.010 MHz Type=DFM17 ser=22037099 Radiosonde
W4DEX-14D220370992022-12-06 23:51:4037.124-79.693710115613390Clb=4.1m/s Type=DFM17 ser=[BC]22037099 Details on http://radiosondy.info
KG4IFE-1D220370992022-12-06 23:51:2837.1252-79.700910414813326Clb=4.7m/s t=-64.1C h=-1.0% p=-1.0hPa 404.010 MHz Type=DFM17 ser=22037099 Radiosonde
W4DEX-14D220370992022-12-06 23:51:2737.1265-79.707810415013255Clb=6.1m/s Type=DFM17 ser=[BC]22037099 Details on http://radiosondy.info
W4KZK-14D220370992022-12-06 23:51:2637.1268-79.709610614413241Clb=3.8m/s t=-64.2C h=-1.0% p=-1.0hPa 404.010 MHz Type=DFM17 ser=22037099 Radiosonde
KG4IFE-1D220370992022-12-06 23:51:1737.1279-79.71510014813187Clb=4.8m/s t=-64.4C h=-1.0% p=-1.0hPa 404.010 MHz Type=DFM17 ser=22037099 Radiosonde
W4DEX-14D220370992022-12-06 23:51:0337.1292-79.721310815413122Clb=5.8m/s Type=DFM17 ser=[BC]22037099 Details on http://radiosondy.info
W4KZK-14D220370992022-12-06 23:51:0137.13-79.724610415613094Clb=3.1m/s t=-65.2C h=-1.0% p=-1.0hPa 404.010 MHz Type=DFM17 ser=22037099 Radiosonde
W4DEX-14D220370992022-12-06 23:50:5737.1309-79.728310915213054Clb=5.5m/s Type=DFM17 ser=[BC]22037099 Details on http://radiosondy.info
W4DEX-14D220370992022-12-06 23:50:5637.1324-79.735110814812988Clb=6.1m/s Type=DFM17 ser=[BC]22037099 Details on http://radiosondy.info
W4KZK-14D220370992022-12-06 23:50:5537.1335-79.739610714812947Clb=5.5m/s t=-65.0C h=-1.0% p=-1.0hPa 404.010 MHz Type=DFM17 ser=22037099 Radiosonde
W4KZK-14D220370992022-12-06 23:50:5437.1372-79.754210915012799Clb=6.1m/s t=-64.4C h=-1.0% p=-1.0hPa 404.010 MHz Type=DFM17 ser=22037099 Radiosonde
KG4IFE-1D220370992022-12-06 23:50:5337.138-79.756811015412773Clb=4.8m/s t=-64.4C h=-1.0% p=-1.0hPa 404.010 MHz Type=DFM17 ser=22037099 Radiosonde
W4DEX-14D220370992022-12-06 23:50:5237.1418-79.768311615912652Clb=5.1m/s Type=DFM17 ser=[BC]22037099 Details on http://radiosondy.info
W4DEX-14D220370992022-12-06 23:50:5137.1442-79.775211715912583Clb=4.9m/s Type=DFM17 ser=[BC]22037099 Details on http://radiosondy.info
W4DEX-14D220370992022-12-06 23:50:4137.1466-79.782111415912519Clb=5.6m/s Type=DFM17 ser=[BC]22037099 Details on http://radiosondy.info
W4KZK-14D220370992022-12-06 23:50:3937.1474-79.784411016112502Clb=3.5m/s t=-63.1C h=-1.0% p=-1.0hPa 404.010 MHz Type=DFM17 ser=22037099 Radiosonde
KG4IFE-1D220370992022-12-06 23:50:3737.1477-79.785311515912493Clb=3.8m/s t=-63.0C h=-1.0% p=-1.0hPa 404.010 MHz Type=DFM17 ser=22037099 Radiosonde
W4DEX-14D220370992022-12-06 23:50:2537.1489-79.78911316112449Clb=5.5m/s Type=DFM17 ser=[BC]22037099 Details on http://radiosondy.info
W4DEX-14D220370992022-12-06 23:50:0137.1511-79.79611415912381Clb=4.3m/s Type=DFM17 ser=[BC]22037099 Details on http://radiosondy.info
KG4IFE-1D220370992022-12-06 23:49:5237.1522-79.799311215912354Clb=4.3m/s t=-62.1C h=-1.0% p=-1.0hPa 404.010 MHz Type=DFM17 ser=22037099 Radiosonde
W4KZK-14D220370992022-12-06 23:49:5137.1523-79.799711015612349Clb=4.7m/s t=-62.0C h=-1.0% p=-1.0hPa 404.010 MHz Type=DFM17 ser=22037099 Radiosonde
W4DEX-14D220370992022-12-06 23:49:3837.1533-79.802911215912315Clb=4.6m/s Type=DFM17 ser=[BC]22037099 Details on http://radiosondy.info
W4DEX-14D220370992022-12-06 23:49:1537.1555-79.809911015912249Clb=5.6m/s Type=DFM17 ser=[BC]22037099 Details on http://radiosondy.info
KG4IFE-1D220370992022-12-06 23:49:0337.1566-79.813611115612217Clb=5.6m/s t=-61.1C h=-1.0% p=-1.0hPa 404.010 MHz Type=DFM17 ser=22037099 Radiosonde
W4KZK-14D220370992022-12-06 23:49:0037.157-79.81510716112203Clb=4.4m/s t=-61.0C h=-1.0% p=-1.0hPa 404.010 MHz Type=DFM17 ser=22037099 Radiosonde
W4DEX-14D220370992022-12-06 23:48:5237.1575-79.816810815912179Clb=4.3m/s Type=DFM17 ser=[BC]22037099 Details on http://radiosondy.info
W4DEX-14D220370992022-12-06 23:48:2837.1595-79.823811015712110Clb=5.5m/s Type=DFM17 ser=[BC]22037099 Details on http://radiosondy.info
KG4IFE-1D220370992022-12-06 23:48:1637.1607-79.82810816112074Clb=4.2m/s t=-60.0C h=-1.0% p=-1.0hPa 404.010 MHz Type=DFM17 ser=22037099 Radiosonde
W4KZK-14D220370992022-12-06 23:48:0937.1613-79.830310815412049Clb=5.0m/s t=-59.9C h=-1.0% p=-1.0hPa 404.010 MHz Type=DFM17 ser=22037099 Radiosonde
W4DEX-14D220370992022-12-06 23:48:0637.1614-79.830811015612041Clb=4.4m/s Type=DFM17 ser=[BC]22037099 Details on http://radiosondy.info
W4DEX-14D220370992022-12-06 23:47:5037.1633-79.837711215711972Clb=4.7m/s Type=DFM17 ser=[BC]22037099 Details on http://radiosondy.info
KG4IFE-1D220370992022-12-06 23:47:3437.1647-79.842810816111927Clb=4.8m/s t=-59.0C h=-1.0% p=-1.0hPa 404.010 MHz Type=DFM17 ser=22037099 Radiosonde
W4DEX-14D220370992022-12-06 23:47:2437.1652-79.844711015711906Clb=3.2m/s Type=DFM17 ser=[BC]22037099 Details on http://radiosondy.info
W4KZK-14D220370992022-12-06 23:47:2337.1655-79.845610815411901Clb=5.0m/s t=-58.8C h=-1.0% p=-1.0hPa 404.010 MHz Type=DFM17 ser=22037099 Radiosonde
W4DEX-14D220370992022-12-06 23:46:5837.1671-79.851710715611834Clb=4.1m/s Type=DFM17 ser=[BC]22037099 Details on http://radiosondy.info
KG4IFE-1D220370992022-12-06 23:46:4137.1686-79.857210915711782Clb=3.7m/s t=-57.9C h=-1.0% p=-1.0hPa 404.010 MHz Type=DFM17 ser=22037099 Radiosonde
W4DEX-14D220370992022-12-06 23:46:3337.169-79.858610715611764Clb=3.2m/s Type=DFM17 ser=[BC]22037099 Details on http://radiosondy.info
W4KZK-14D220370992022-12-06 23:46:2737.1696-79.860910815011745Clb=4.3m/s t=-57.7C h=-1.0% p=-1.0hPa 404.010 MHz Type=DFM17 ser=22037099 Radiosonde
W4DEX-14D220370992022-12-06 23:46:1037.1708-79.865510815611694Clb=4.6m/s Type=DFM17 ser=[BC]22037099 Details on http://radiosondy.info
W4DEX-14D220370992022-12-06 23:45:4737.1726-79.872510715611622Clb=4.2m/s Type=DFM17 ser=[BC]22037099 Details on http://radiosondy.info
W4KZK-14D220370992022-12-06 23:45:3637.1735-79.876210715011590Clb=5.4m/s t=-56.4C h=-1.0% p=-1.0hPa 404.010 MHz Type=DFM17 ser=22037099 Radiosonde
W4DEX-14D220370992022-12-06 23:45:2237.1743-79.879410615411555Clb=3.8m/s Type=DFM17 ser=[BC]22037099 Details on http://radiosondy.info
KG4IFE-1D220370992022-12-06 23:45:0237.1758-79.885810615411495Clb=4.7m/s t=-55.6C h=-1.0% p=-1.0hPa 404.010 MHz Type=DFM17 ser=22037099 Radiosonde
W4DEX-14D220370992022-12-06 23:44:5937.1759-79.886310615611485Clb=3.4m/s Type=DFM17 ser=[BC]22037099 Details on http://radiosondy.info
W4KZK-14D220370992022-12-06 23:44:4637.1772-79.891410515711438Clb=5.1m/s t=-55.1C h=-1.0% p=-1.0hPa 404.010 MHz Type=DFM17 ser=22037099 Radiosonde
W4DEX-14D220370992022-12-06 23:44:3737.1777-79.893211015411416Clb=4.6m/s Type=DFM17 ser=[BC]22037099 Details on http://radiosondy.info
KG4IFE-1D220370992022-12-06 23:44:1637.1793-79.900110815011352Clb=6.2m/s t=-54.5C h=-1.0% p=-1.0hPa 404.010 MHz Type=DFM17 ser=22037099 Radiosonde
W4DEX-14D220370992022-12-06 23:44:1437.1793-79.900110915011347Clb=3.6m/s Type=DFM17 ser=[BC]22037099 Details on http://radiosondy.info
W4KZK-14D220370992022-12-06 23:43:5737.1808-79.906410914411286Clb=4.0m/s t=-54.0C h=-1.0% p=-1.0hPa 404.010 MHz Type=DFM17 ser=22037099 Radiosonde
W4DEX-14D220370992022-12-06 23:43:5537.1809-79.906911015011277Clb=4.5m/s Type=DFM17 ser=[BC]22037099 Details on http://radiosondy.info
KG4IFE-1D220370992022-12-06 23:43:4037.1827-79.914510415411203Clb=4.1m/s t=-53.4C h=-1.0% p=-1.0hPa 404.010 MHz Type=DFM17 ser=22037099 Radiosonde
W4DEX-14D220370992022-12-06 23:43:2937.184-79.920310614811141Clb=3.2m/s Type=DFM17 ser=[BC]22037099 Details on http://radiosondy.info
W4DEX-14D220370992022-12-06 23:43:2637.1855-79.92710514811068Clb=6.3m/s Type=DFM17 ser=[BC]22037099 Details on http://radiosondy.info
W4DEX-14D220370992022-12-06 23:43:1437.187-79.933710814810999Clb=3.4m/s Type=DFM17 ser=[BC]22037099 Details on http://radiosondy.info
W4KZK-14D220370992022-12-06 23:43:1037.1875-79.935910514810983Clb=4.2m/s t=-51.5C h=-1.0% p=-1.0hPa 404.010 MHz Type=DFM17 ser=22037099 Radiosonde
W4DEX-14D220370992022-12-06 23:43:0137.1885-79.940410714810932Clb=3.9m/s Type=DFM17 ser=[BC]22037099 Details on http://radiosondy.info
W4DEX-14D220370992022-12-06 23:43:0037.1899-79.947110715410866Clb=4.0m/s Type=DFM17 ser=[BC]22037099 Details on http://radiosondy.info
W4DEX-14D220370992022-12-06 23:42:5937.1915-79.95410715410799Clb=3.1m/s Type=DFM17 ser=[BC]22037099 Details on http://radiosondy.info
W4DEX-14D220370992022-12-06 23:42:5137.1933-79.960810715210736Clb=5.4m/s Type=DFM17 ser=[BC]22037099 Details on http://radiosondy.info
W4KZK-14D220370992022-12-06 23:42:3937.1946-79.965810715610693Clb=3.0m/s t=-49.7C h=-1.0% p=-1.0hPa 404.010 MHz Type=DFM17 ser=22037099 Radiosonde
W4DEX-14D220370992022-12-06 23:42:2937.195-79.967610914810671Clb=5.0m/s Type=DFM17 ser=[BC]22037099 Details on http://radiosondy.info
KG4IFE-1D220370992022-12-06 23:42:2337.1956-79.969810615210656Clb=3.6m/s t=-49.4C h=-1.0% p=-1.0hPa 404.010 MHz Type=DFM17 ser=22037099 Radiosonde
W4DEX-14D220370992022-12-06 23:42:0637.1967-79.974211014410613Clb=3.0m/s Type=DFM17 ser=[BC]22037099 Details on http://radiosondy.info
W4KZK-14D220370992022-12-06 23:41:4737.1983-79.980210714110559Clb=4.1m/s t=-48.9C h=-1.0% p=-1.0hPa 404.010 MHz Type=DFM17 ser=22037099 Radiosonde
W4DEX-14D220370992022-12-06 23:41:4337.1984-79.980610814410550Clb=3.3m/s Type=DFM17 ser=[BC]22037099 Details on http://radiosondy.info
KG4IFE-1D220370992022-12-06 23:41:3637.1992-79.983610713710523Clb=6.0m/s t=-48.8C h=-1.0% p=-1.0hPa 404.010 MHz Type=DFM17 ser=22037099 Radiosonde
W4DEX-14D220370992022-12-06 23:41:2037.2001-79.98711214810484Clb=3.7m/s Type=DFM17 ser=[BC]22037099 Details on http://radiosondy.info
W4DEX-14D220370992022-12-06 23:40:5737.2021-79.993511314810422Clb=3.9m/s Type=DFM17 ser=[BC]22037099 Details on http://radiosondy.info
W4KZK-14D220370992022-12-06 23:40:5637.2024-79.994411014810418Clb=4.0m/s t=-48.2C h=-1.0% p=-1.0hPa 404.010 MHz Type=DFM17 ser=22037099 Radiosonde
KG4IFE-1D220370992022-12-06 23:40:4937.203-79.996510815010397Clb=3.5m/s t=-48.1C h=-1.0% p=-1.0hPa 404.010 MHz Type=DFM17 ser=22037099 Radiosonde
W4DEX-14D220370992022-12-06 23:40:3437.2041-8011014810360Clb=3.7m/s Type=DFM17 ser=[BC]22037099 Details on http://radiosondy.info
W4DEX-14D220370992022-12-06 23:40:1337.2062-80.006411014410300Clb=5.1m/s Type=DFM17 ser=[BC]22037099 Details on http://radiosondy.info
W4KZK-14D220370992022-12-06 23:40:0737.2069-80.008611514410285Clb=3.1m/s t=-47.5C h=-1.0% p=-1.0hPa 404.010 MHz Type=DFM17 ser=22037099 Radiosonde
KG4IFE-1D220370992022-12-06 23:40:0437.2072-80.009810813910271Clb=4.0m/s t=-47.4C h=-1.0% p=-1.0hPa 404.010 MHz Type=DFM17 ser=22037099 Radiosonde
W4DEX-14D220370992022-12-06 23:39:5537.2082-80.012711013910234Clb=4.2m/s Type=DFM17 ser=[BC]22037099 Details on http://radiosondy.info
W4DEX-14D220370992022-12-06 23:39:4137.2099-80.018811913310167Clb=7.8m/s Type=DFM17 ser=[BC]22037099 Details on http://radiosondy.info
W4KZK-14D220370992022-12-06 23:39:3337.2108-80.021910812010126Clb=4.8m/s t=-46.4C h=-1.0% p=-1.0hPa 404.010 MHz Type=DFM17 ser=22037099 Radiosonde
KG4IFE-1D220370992022-12-06 23:39:3237.2109-80.022210812610121Clb=5.1m/s t=-46.4C h=-1.0% p=-1.0hPa 404.010 MHz Type=DFM17 ser=22037099 Radiosonde
W4DEX-14D220370992022-12-06 23:39:2537.2115-80.024611213010093Clb=4.8m/s Type=DFM17 ser=[BC]22037099 Details on http://radiosondy.info
W4DEX-14D220370992022-12-06 23:39:1137.2132-80.030410712810025Clb=4.2m/s Type=DFM17 ser=[BC]22037099 Details on http://radiosondy.info
KG4IFE-1D220370992022-12-06 23:39:0237.2141-80.03421051379986Clb=4.9m/s t=-45.3C h=-1.0% p=-1.0hPa 404.010 MHz Type=DFM17 ser=22037099 Radiosonde
W4KZK-14D220370992022-12-06 23:39:0037.2142-80.0351041209973Clb=4.8m/s t=-45.2C h=-1.0% p=-1.0hPa 404.010 MHz Type=DFM17 ser=22037099 Radiosonde
W4DEX-14D220370992022-12-06 23:38:5537.2145-80.03621101309953Clb=4.3m/s Type=DFM17 ser=[BC]22037099 Details on http://radiosondy.info
W4DEX-14D220370992022-12-06 23:38:4037.2159-80.0421131309883Clb=2.8m/s Type=DFM17 ser=[BC]22037099 Details on http://radiosondy.info
KG4IFE-1D220370992022-12-06 23:38:3037.217-80.04661091309829Clb=5.1m/s t=-44.0C h=-1.0% p=-1.0hPa 404.010 MHz Type=DFM17 ser=22037099 Radiosonde
W4KZK-14D220370992022-12-06 23:38:2737.2173-80.04771051399815Clb=6.9m/s t=-43.9C h=-1.0% p=-1.0hPa 404.010 MHz Type=DFM17 ser=22037099 Radiosonde
W4DEX-14D220370992022-12-06 23:38:2537.2173-80.04771061309809Clb=3.4m/s Type=DFM17 ser=[BC]22037099 Details on http://radiosondy.info
W4DEX-14D220370992022-12-06 23:38:1537.2186-80.05361041249730Clb=4.6m/s Type=DFM17 ser=[BC]22037099 Details on http://radiosondy.info
W4KZK-14D220370992022-12-06 23:38:1437.2196-80.0604971229636Clb=4.3m/s t=-42.8C h=-1.0% p=-1.0hPa 404.010 MHz Type=DFM17 ser=22037099 Radiosonde
KG4IFE-1D220370992022-12-06 23:38:0537.2212-80.06991051229495Clb=5.3m/s t=-41.7C h=-1.0% p=-1.0hPa 404.010 MHz Type=DFM17 ser=22037099 Radiosonde
W4DEX-14D220370992022-12-06 23:38:0337.2212-80.07031041139484Clb=7.1m/s Type=DFM17 ser=[BC]22037099 Details on http://radiosondy.info
W4KZK-14D220370992022-12-06 23:37:5737.2216-80.07231071009452Clb=2.9m/s t=-41.4C h=-1.0% p=-1.0hPa 404.010 MHz Type=DFM17 ser=22037099 Radiosonde
W4DEX-14D220370992022-12-06 23:37:4237.222-80.07541061029390Clb=5.9m/s Type=DFM17 ser=[BC]22037099 Details on http://radiosondy.info
KG4IFE-1D220370992022-12-06 23:37:2037.2224-80.079897989325Clb=4.6m/s t=-40.7C h=-1.0% p=-1.0hPa 404.010 MHz Type=DFM17 ser=22037099 Radiosonde
W4DEX-14D220370992022-12-06 23:37:1737.2225-80.0801981049317Clb=5.3m/s Type=DFM17 ser=[BC]22037099 Details on http://radiosondy.info
W4KZK-14D220370992022-12-06 23:37:0637.2226-80.0831991029282Clb=4.7m/s t=-40.3C h=-1.0% p=-1.0hPa 404.010 MHz Type=DFM17 ser=22037099 Radiosonde
W4DEX-14D220370992022-12-06 23:36:5537.2228-80.085931029251Clb=5.0m/s Type=DFM17 ser=[BC]22037099 Details on http://radiosondy.info
W4DEX-14D220370992022-12-06 23:36:3237.2231-80.0897971069170Clb=6.6m/s Type=DFM17 ser=[BC]22037099 Details on http://radiosondy.info
W4KZK-14D220370992022-12-06 23:36:1837.2235-80.0937941079110Clb=7.3m/s t=-39.2C h=-1.0% p=-1.0hPa 404.010 MHz Type=DFM17 ser=22037099 Radiosonde
W4DEX-14D220370992022-12-06 23:36:1237.2236-80.0946951049082Clb=5.2m/s Type=DFM17 ser=[BC]22037099 Details on http://radiosondy.info
W4DEX-14D220370992022-12-06 23:35:5537.2241-80.09931111048989Clb=3.4m/s Type=DFM17 ser=[BC]22037099 Details on http://radiosondy.info
KG4IFE-1D220370992022-12-06 23:35:5437.2242-80.09991031008984Clb=5.5m/s t=-38.5C h=-1.0% p=-1.0hPa 404.010 MHz Type=DFM17 ser=22037099 Radiosonde
W4KZK-14D220370992022-12-06 23:35:4237.2249-80.1041991068906Clb=4.4m/s t=-38.1C h=-1.0% p=-1.0hPa 404.010 MHz Type=DFM17 ser=22037099 Radiosonde
W4DEX-14D220370992022-12-06 23:35:4037.2249-80.10411031068901Clb=6.4m/s Type=DFM17 ser=[BC]22037099 Details on http://radiosondy.info
W4DEX-14D220370992022-12-06 23:35:2537.2259-80.10891051048822Clb=5.4m/s Type=DFM17 ser=[BC]22037099 Details on http://radiosondy.info
KG4IFE-1D220370992022-12-06 23:35:2337.2261-80.10981031078812Clb=4.6m/s t=-37.4C h=-1.0% p=-1.0hPa 404.010 MHz Type=DFM17 ser=22037099 Radiosonde
W4DEX-14D220370992022-12-06 23:35:1037.2269-80.11361061008743Clb=6.7m/s Type=DFM17 ser=[BC]22037099 Details on http://radiosondy.info
W4KZK-14D220370992022-12-06 23:35:0837.2271-80.1144991048730Clb=5.3m/s t=-36.7C h=-1.0% p=-1.0hPa 404.010 MHz Type=DFM17 ser=22037099 Radiosonde
W4DEX-14D220370992022-12-06 23:34:5537.2277-80.11811031028668Clb=3.7m/s Type=DFM17 ser=[BC]22037099 Details on http://radiosondy.info
KG4IFE-1D220370992022-12-06 23:34:5237.2279-80.11931001028654Clb=4.5m/s t=-36.0C h=-1.0% p=-1.0hPa 404.010 MHz Type=DFM17 ser=22037099 Radiosonde
W4DEX-14D220370992022-12-06 23:34:4037.2286-80.122894948590Clb=6.1m/s Type=DFM17 ser=[BC]22037099 Details on http://radiosondy.info
W4KZK-14D220370992022-12-06 23:34:3537.2288-80.1246110898552Clb=8.2m/s t=-35.3C h=-1.0% p=-1.0hPa 404.010 MHz Type=DFM17 ser=22037099 Radiosonde
W4DEX-14D220370992022-12-06 23:34:2537.2293-80.12798878497Clb=5.9m/s Type=DFM17 ser=[BC]22037099 Details on http://radiosondy.info
KG4IFE-1D220370992022-12-06 23:34:2137.2295-80.1284103948469Clb=7.5m/s t=-34.7C h=-1.0% p=-1.0hPa 404.010 MHz Type=DFM17 ser=22037099 Radiosonde
W4DEX-14D220370992022-12-06 23:34:1237.2298-80.1311104838415Clb=4.4m/s Type=DFM17 ser=[BC]22037099 Details on http://radiosondy.info
W4KZK-14D220370992022-12-06 23:34:0237.2303-80.133490808367Clb=7.7m/s t=-33.9C h=-1.0% p=-1.0hPa 404.010 MHz Type=DFM17 ser=22037099 Radiosonde
W4DEX-14D220370992022-12-06 23:33:5537.2305-80.13598858324Clb=5.5m/s Type=DFM17 ser=[BC]22037099 Details on http://radiosondy.info
KG4IFE-1D220370992022-12-06 23:33:5037.2307-80.136899808293Clb=5.2m/s t=-33.4C h=-1.0% p=-1.0hPa 404.010 MHz Type=DFM17 ser=22037099 Radiosonde
W4DEX-14D220370992022-12-06 23:33:4937.2309-80.138995818254Clb=5.4m/s Type=DFM17 ser=[BC]22037099 Details on http://radiosondy.info
W4DEX-14D220370992022-12-06 23:33:4737.2312-80.1426102808184Clb=5.0m/s Type=DFM17 ser=[BC]22037099 Details on http://radiosondy.info
KG4IFE-1D220370992022-12-06 23:33:4337.2313-80.144492768158Clb=5.1m/s t=-32.6C h=-1.0% p=-1.0hPa 404.010 MHz Type=DFM17 ser=22037099 Radiosonde
W4DEX-14D220370992022-12-06 23:33:3437.2314-80.146494788118Clb=5.1m/s Type=DFM17 ser=[BC]22037099 Details on http://radiosondy.info
W4KZK-14D220370992022-12-06 23:33:1537.2317-80.150294768053Clb=3.6m/s t=-31.7C h=-1.0% p=-1.0hPa 404.010 MHz Type=DFM17 ser=22037099 Radiosonde
W4DEX-14D220370992022-12-06 23:33:1337.2316-80.1598788053Clb=3.5m/s Type=DFM17 ser=[BC]22037099 Details on http://radiosondy.info
KG4IFE-1D220370992022-12-06 23:33:0437.2317-80.151993788022Clb=4.1m/s t=-31.5C h=-1.0% p=-1.0hPa 404.010 MHz Type=DFM17 ser=22037099 Radiosonde
W4DEX-14D220370992022-12-06 23:32:5537.2317-80.153691787987Clb=4.5m/s Type=DFM17 ser=[BC]22037099 Details on http://radiosondy.info
W4DEX-14D220370992022-12-06 23:32:3337.2317-80.157392787917Clb=5.3m/s Type=DFM17 ser=[BC]22037099 Details on http://radiosondy.info
W4KZK-14D220370992022-12-06 23:32:3037.2318-80.15889767908Clb=4.4m/s t=-30.6C h=-1.0% p=-1.0hPa 404.010 MHz Type=DFM17 ser=22037099 Radiosonde
KG4IFE-1D220370992022-12-06 23:32:2237.2317-80.159589837883Clb=4.6m/s t=-30.4C h=-1.0% p=-1.0hPa 404.010 MHz Type=DFM17 ser=22037099 Radiosonde
W4DEX-14D220370992022-12-06 23:32:1337.2317-80.160991787851Clb=3.3m/s Type=DFM17 ser=[BC]22037099 Details on http://radiosondy.info
W4DEX-14D220370992022-12-06 23:31:5537.2317-80.164693807785Clb=3.9m/s Type=DFM17 ser=[BC]22037099 Details on http://radiosondy.info
W4KZK-14D220370992022-12-06 23:31:5037.2317-80.166288807763Clb=5.4m/s t=-29.4C h=-1.0% p=-1.0hPa 404.010 MHz Type=DFM17 ser=22037099 Radiosonde
KG4IFE-1D220370992022-12-06 23:31:4637.2317-80.167192787746Clb=3.3m/s t=-29.2C h=-1.0% p=-1.0hPa 404.010 MHz Type=DFM17 ser=22037099 Radiosonde
W4DEX-14D220370992022-12-06 23:31:4037.2317-80.168395817719Clb=4.9m/s Type=DFM17 ser=[BC]22037099 Details on http://radiosondy.info
W4DEX-14D220370992022-12-06 23:31:2537.2317-80.172195817655Clb=4.9m/s Type=DFM17 ser=[BC]22037099 Details on http://radiosondy.info
W4KZK-14D220370992022-12-06 23:31:1737.2317-80.174689767615Clb=4.8m/s t=-28.2C h=-1.0% p=-1.0hPa 404.010 MHz Type=DFM17 ser=22037099 Radiosonde
KG4IFE-1D220370992022-12-06 23:31:1537.2317-80.175186837606Clb=4.0m/s t=-28.2C h=-1.0% p=-1.0hPa 404.010 MHz Type=DFM17 ser=22037099 Radiosonde
W4DEX-14D220370992022-12-06 23:31:1037.2317-80.175989787589Clb=4.1m/s Type=DFM17 ser=[BC]22037099 Details on http://radiosondy.info
W4DEX-14D220370992022-12-06 23:30:5537.2317-80.179685817521Clb=4.0m/s Type=DFM17 ser=[BC]22037099 Details on http://radiosondy.info
KG4IFE-1D220370992022-12-06 23:30:4437.2318-80.182689817469Clb=4.9m/s t=-27.1C h=-1.0% p=-1.0hPa 404.010 MHz Type=DFM17 ser=22037099 Radiosonde
W4DEX-14D220370992022-12-06 23:30:4037.2318-80.183396817451Clb=3.2m/s Type=DFM17 ser=[BC]22037099 Details on http://radiosondy.info
W4DEX-14D220370992022-12-06 23:30:2537.2318-80.187292817381Clb=4.5m/s Type=DFM17 ser=[BC]22037099 Details on http://radiosondy.info
KG4IFE-1D220370992022-12-06 23:30:1337.2319-80.190599837325Clb=4.2m/s t=-26.0C h=-1.0% p=-1.0hPa 404.010 MHz Type=DFM17 ser=22037099 Radiosonde
W4DEX-14D220370992022-12-06 23:30:1037.232-80.19192837311Clb=4.4m/s Type=DFM17 ser=[BC]22037099 Details on http://radiosondy.info
W4DEX-14D220370992022-12-06 23:29:5537.2321-80.194991837235Clb=5.7m/s Type=DFM17 ser=[BC]22037099 Details on http://radiosondy.info
KG4IFE-1D220370992022-12-06 23:29:4237.2321-80.198593637170Clb=4.6m/s t=-24.6C h=-1.0% p=-1.0hPa 404.010 MHz Type=DFM17 ser=22037099 Radiosonde
W4DEX-14D220370992022-12-06 23:29:4037.2321-80.1987103817158Clb=6.6m/s Type=DFM17 ser=[BC]22037099 Details on http://radiosondy.info
W4KZK-14D220370992022-12-06 23:29:3737.2322-80.199886967138Clb=6.3m/s t=-24.2C h=-1.0% p=-1.0hPa 404.010 MHz Type=DFM17 ser=22037099 Radiosonde
W4DEX-14D220370992022-12-06 23:29:2537.2324-80.202694857073Clb=6.4m/s Type=DFM17 ser=[BC]22037099 Details on http://radiosondy.info
KG4IFE-1D220370992022-12-06 23:29:2037.2326-80.206593896981Clb=5.6m/s t=-24.3C h=-1.0% p=-1.0hPa 404.010 MHz Type=DFM17 ser=22037099 Radiosonde
W4DEX-14D220370992022-12-06 23:29:1937.2326-80.206594856975Clb=6.4m/s Type=DFM17 ser=[BC]22037099 Details on http://radiosondy.info
W4KZK-14D220370992022-12-06 23:29:1737.2327-80.208491876944Clb=3.3m/s t=-24.1C h=-1.0% p=-1.0hPa 404.010 MHz Type=DFM17 ser=22037099 Radiosonde
W4DEX-14D220370992022-12-06 23:29:0537.233-80.210492876899Clb=6.5m/s Type=DFM17 ser=[BC]22037099 Details on http://radiosondy.info
KG4IFE-1D220370992022-12-06 23:28:4637.2331-80.214887946807Clb=6.3m/s t=-21.7C h=-1.0% p=-1.0hPa 404.010 MHz Type=DFM17 ser=22037099 Radiosonde
W4KZK-14D220370992022-12-06 23:28:3837.2333-80.217797856742Clb=5.9m/s t=-22.6C h=-1.0% p=-1.0hPa 404.010 MHz Type=DFM17 ser=22037099 Radiosonde
W4DEX-14D220370992022-12-06 23:28:2837.2334-80.218797816709Clb=4.6m/s Type=DFM17 ser=[BC]22037099 Details on http://radiosondy.info
W4DEX-14D220370992022-12-06 23:28:1037.2337-80.222598856636Clb=4.8m/s Type=DFM17 ser=[BC]22037099 Details on http://radiosondy.info
KG4IFE-1D220370992022-12-06 23:28:0937.2338-80.223101876632Clb=3.8m/s t=-20.3C h=-1.0% p=-1.0hPa 404.010 MHz Type=DFM17 ser=22037099 Radiosonde
W4KZK-14D220370992022-12-06 23:27:5937.2342-80.225987726580Clb=6.6m/s t=-19.5C h=-1.0% p=-1.0hPa 404.010 MHz Type=DFM17 ser=22037099 Radiosonde
W4DEX-14D220370992022-12-06 23:27:5537.2342-80.2263100816561Clb=5.2m/s Type=DFM17 ser=[BC]22037099 Details on http://radiosondy.info
W4DEX-14D220370992022-12-06 23:27:4037.2347-80.230186876487Clb=4.7m/s Type=DFM17 ser=[BC]22037099 Details on http://radiosondy.info
KG4IFE-1D220370992022-12-06 23:27:3837.2347-80.231290986471Clb=5.6m/s t=-17.9C h=-1.0% p=-1.0hPa 404.010 MHz Type=DFM17 ser=22037099 Radiosonde
W4KZK-14D220370992022-12-06 23:27:2537.2349-80.2344103786395Clb=5.7m/s t=-17.3C h=-1.0% p=-1.0hPa 404.010 MHz Type=DFM17 ser=22037099 Radiosonde
W4DEX-14D220370992022-12-06 23:27:1037.2349-80.237786836304Clb=5.1m/s Type=DFM17 ser=[BC]22037099 Details on http://radiosondy.info
KG4IFE-1D220370992022-12-06 23:27:0737.235-80.239194726275Clb=6.9m/s t=-16.5C h=-1.0% p=-1.0hPa 404.010 MHz Type=DFM17 ser=22037099 Radiosonde
W4DEX-14D220370992022-12-06 23:26:5537.235-80.241584816199Clb=6.4m/s Type=DFM17 ser=[BC]22037099 Details on http://radiosondy.info
W4KZK-14D220370992022-12-06 23:26:5237.2348-80.242779966172Clb=8.3m/s t=-15.2C h=-1.0% p=-1.0hPa 404.010 MHz Type=DFM17 ser=22037099 Radiosonde
W4DEX-14D220370992022-12-06 23:26:4037.2348-80.245375766095Clb=8.0m/s Type=DFM17 ser=[BC]22037099 Details on http://radiosondy.info
KG4IFE-1D220370992022-12-06 23:26:3537.2348-80.246994916056Clb=6.1m/s t=-16.0C h=-1.0% p=-1.0hPa 404.010 MHz Type=DFM17 ser=22037099 Radiosonde
W4DEX-14D220370992022-12-06 23:26:2537.2346-80.2487102766005Clb=4.3m/s Type=DFM17 ser=[BC]22037099 Details on http://radiosondy.info
W4KZK-14D220370992022-12-06 23:26:2037.2347-80.250678745970Clb=5.2m/s t=-15.6C h=-1.0% p=-1.0hPa 404.010 MHz Type=DFM17 ser=22037099 Radiosonde
W4DEX-14D220370992022-12-06 23:26:1037.2347-80.252386725921Clb=5.8m/s Type=DFM17 ser=[BC]22037099 Details on http://radiosondy.info
KG4IFE-1D220370992022-12-06 23:26:0437.2346-80.253899725890Clb=6.1m/s t=-15.2C h=-1.0% p=-1.0hPa 404.010 MHz Type=DFM17 ser=22037099 Radiosonde
W4DEX-14D220370992022-12-06 23:25:5537.2345-80.255798675832Clb=6.9m/s Type=DFM17 ser=[BC]22037099 Details on http://radiosondy.info
W4KZK-14D220370992022-12-06 23:25:4637.2343-80.257865695776Clb=5.4m/s t=-14.4C h=-1.0% p=-1.0hPa 404.010 MHz Type=DFM17 ser=22037099 Radiosonde
W4DEX-14D220370992022-12-06 23:25:4137.2343-80.258895745737Clb=4.7m/s Type=DFM17 ser=[BC]22037099 Details on http://radiosondy.info
KG4IFE-1D220370992022-12-06 23:25:3337.2341-80.260782725704Clb=5.9m/s t=-14.0C h=-1.0% p=-1.0hPa 404.010 MHz Type=DFM17 ser=22037099 Radiosonde
W4DEX-14D220370992022-12-06 23:25:2537.234-80.262276765663Clb=4.6m/s Type=DFM17 ser=[BC]22037099 Details on http://radiosondy.info
W4KZK-14D220370992022-12-06 23:25:1437.2338-80.265590635588Clb=6.6m/s t=-13.2C h=-1.0% p=-1.0hPa 404.010 MHz Type=DFM17 ser=22037099 Radiosonde
KG4IFE-1D220370992022-12-06 23:25:1037.2334-80.267887575528Clb=7.3m/s t=-12.7C h=-1.0% p=-1.0hPa 404.010 MHz Type=DFM17 ser=22037099 Radiosonde
W4DEX-14D220370992022-12-06 23:25:0437.2332-80.26983655482Clb=6.5m/s Type=DFM17 ser=[BC]22037099 Details on http://radiosondy.info
W4KZK-14D220370992022-12-06 23:24:4637.2328-80.272171805383Clb=6.0m/s t=-11.7C h=-1.0% p=-1.0hPa 404.010 MHz Type=DFM17 ser=22037099 Radiosonde
KG4IFE-1D220370992022-12-06 23:24:3737.2326-80.27470705332Clb=5.8m/s t=-11.4C h=-1.0% p=-1.0hPa 404.010 MHz Type=DFM17 ser=22037099 Radiosonde
W4DEX-14D220370992022-12-06 23:24:2837.2325-80.275298655297Clb=5.4m/s Type=DFM17 ser=[BC]22037099 Details on http://radiosondy.info
W4DEX-14D220370992022-12-06 23:24:1137.232-80.278176635211Clb=5.7m/s Type=DFM17 ser=[BC]22037099 Details on http://radiosondy.info
W4KZK-14D220370992022-12-06 23:24:0837.2318-80.278983765191Clb=5.5m/s t=-9.7C h=-1.0% p=-1.0hPa 404.010 MHz Type=DFM17 ser=22037099 Radiosonde
KG4IFE-1D220370992022-12-06 23:24:0037.2317-80.280165655147Clb=6.3m/s t=-9.4C h=-1.0% p=-1.0hPa 404.010 MHz Type=DFM17 ser=22037099 Radiosonde
W4DEX-14D220370992022-12-06 23:23:5537.2315-80.28194655121Clb=5.6m/s Type=DFM17 ser=[BC]22037099 Details on http://radiosondy.info
W4DEX-14D220370992022-12-06 23:23:4037.2312-80.28477695015Clb=6.2m/s Type=DFM17 ser=[BC]22037099 Details on http://radiosondy.info
W4KZK-14D220370992022-12-06 23:23:3437.2311-80.285680744977Clb=6.5m/s t=-8.8C h=-1.0% p=-1.0hPa 404.010 MHz Type=DFM17 ser=22037099 Radiosonde
KG4IFE-1D220370992022-12-06 23:23:2937.2311-80.286697704957Clb=3.9m/s t=-8.7C h=-1.0% p=-1.0hPa 404.010 MHz Type=DFM17 ser=22037099 Radiosonde
W4DEX-14D220370992022-12-06 23:23:2537.2312-80.287289594939Clb=4.4m/s Type=DFM17 ser=[BC]22037099 Details on http://radiosondy.info
W4DEX-14D220370992022-12-06 23:23:1037.2309-80.289983704858Clb=5.5m/s Type=DFM17 ser=[BC]22037099 Details on http://radiosondy.info
W4KZK-14D220370992022-12-06 23:23:0137.231-80.292190874805Clb=4.3m/s t=-7.7C h=-1.0% p=-1.0hPa 404.010 MHz Type=DFM17 ser=22037099 Radiosonde
KG4IFE-1D220370992022-12-06 23:22:5837.2309-80.292881574791Clb=5.4m/s t=-7.6C h=-1.0% p=-1.0hPa 404.010 MHz Type=DFM17 ser=22037099 Radiosonde
W4DEX-14D220370992022-12-06 23:22:5537.2309-80.293296724773Clb=5.2m/s Type=DFM17 ser=[BC]22037099 Details on http://radiosondy.info
W4DEX-14D220370992022-12-06 23:22:4037.2311-80.296584694690Clb=5.7m/s Type=DFM17 ser=[BC]22037099 Details on http://radiosondy.info
W4KZK-14D220370992022-12-06 23:22:2837.2313-80.299299834616Clb=5.9m/s t=-6.3C h=-1.0% p=-1.0hPa 404.010 MHz Type=DFM17 ser=22037099 Radiosonde
KG4IFE-1D220370992022-12-06 23:22:2737.2313-80.299886854605Clb=5.3m/s t=-6.2C h=-1.0% p=-1.0hPa 404.010 MHz Type=DFM17 ser=22037099 Radiosonde
W4DEX-14D220370992022-12-06 23:22:2537.2313-80.299887704599Clb=6.0m/s Type=DFM17 ser=[BC]22037099 Details on http://radiosondy.info
W4DEX-14D220370992022-12-06 23:22:1037.2314-80.303192724511Clb=5.4m/s Type=DFM17 ser=[BC]22037099 Details on http://radiosondy.info
KG4IFE-1D220370992022-12-06 23:21:5637.2313-80.306499674433Clb=3.8m/s t=-5.3C h=-1.0% p=-1.0hPa 404.010 MHz Type=DFM17 ser=22037099 Radiosonde
W4DEX-14D220370992022-12-06 23:21:5537.2313-80.3064100724429Clb=4.7m/s Type=DFM17 ser=[BC]22037099 Details on http://radiosondy.info
W4DEX-14D220370992022-12-06 23:21:4037.2308-80.309695704339Clb=5.1m/s Type=DFM17 ser=[BC]22037099 Details on http://radiosondy.info
KG4IFE-1D220370992022-12-06 23:21:2537.2305-80.313169654258Clb=6.0m/s t=-4.4C h=-1.0% p=-1.0hPa 404.010 MHz Type=DFM17 ser=22037099 Radiosonde
W4KZK-14D220370992022-12-06 23:21:2237.2305-80.313995674235Clb=5.3m/s t=-4.3C h=-1.0% p=-1.0hPa 404.010 MHz Type=DFM17 ser=22037099 Radiosonde
W4DEX-14D220370992022-12-06 23:21:1037.2303-80.315875574170Clb=5.1m/s Type=DFM17 ser=[BC]22037099 Details on http://radiosondy.info
W4DEX-14D220370992022-12-06 23:20:5637.23-80.318473594086Clb=4.8m/s Type=DFM17 ser=[BC]22037099 Details on http://radiosondy.info
KG4IFE-1D220370992022-12-06 23:20:5537.23-80.318866574080Clb=6.1m/s t=-3.5C h=-1.0% p=-1.0hPa 404.010 MHz Type=DFM17 ser=22037099 Radiosonde
W4KZK-14D220370992022-12-06 23:20:5037.2297-80.320295564039Clb=6.7m/s t=-3.3C h=-1.0% p=-1.0hPa 404.010 MHz Type=DFM17 ser=22037099 Radiosonde
W4DEX-14D220370992022-12-06 23:20:4137.2296-80.321294574002Clb=6.7m/s Type=DFM17 ser=[BC]22037099 Details on http://radiosondy.info
W4DEX-14D220370992022-12-06 23:20:2537.2295-80.323984593913Clb=5.1m/s Type=DFM17 ser=[BC]22037099 Details on http://radiosondy.info
KG4IFE-1D220370992022-12-06 23:20:2437.2294-80.324590503901Clb=5.1m/s t=-2.9C h=-1.0% p=-1.0hPa 404.010 MHz Type=DFM17 ser=22037099 Radiosonde
W4KZK-14D220370992022-12-06 23:20:1637.2292-80.325990483855Clb=6.4m/s t=-2.6C h=-1.0% p=-1.0hPa 404.010 MHz Type=DFM17 ser=22037099 Radiosonde
W4DEX-14D220370992022-12-06 23:20:1037.2291-80.326574633826Clb=6.2m/s Type=DFM17 ser=[BC]22037099 Details on http://radiosondy.info
W4DEX-14D220370992022-12-06 23:19:5537.2287-80.329487563742Clb=5.2m/s Type=DFM17 ser=[BC]22037099 Details on http://radiosondy.info
KG4IFE-1D220370992022-12-06 23:19:5237.2285-80.330270673716Clb=6.4m/s t=-2.5C h=-1.0% p=-1.0hPa 404.010 MHz Type=DFM17 ser=22037099 Radiosonde
W4KZK-14D220370992022-12-06 23:19:4237.2281-80.331790563660Clb=5.1m/s t=-1.8C h=-1.0% p=-1.0hPa 404.010 MHz Type=DFM17 ser=22037099 Radiosonde
W4DEX-14D220370992022-12-06 23:19:4037.2281-80.331975523649Clb=6.2m/s Type=DFM17 ser=[BC]22037099 Details on http://radiosondy.info
W4DEX-14D220370992022-12-06 23:19:2537.2275-80.334188563559Clb=5.0m/s Type=DFM17 ser=[BC]22037099 Details on http://radiosondy.info
KG4IFE-1D220370992022-12-06 23:19:2137.2273-80.335164613538Clb=6.4m/s t=-1.1C h=-1.0% p=-1.0hPa 404.010 MHz Type=DFM17 ser=22037099 Radiosonde
W4DEX-14D220370992022-12-06 23:19:1037.2268-80.336670613477Clb=6.9m/s Type=DFM17 ser=[BC]22037099 Details on http://radiosondy.info
W4KZK-14D220370992022-12-06 23:19:0937.2267-80.33778463461Clb=7.4m/s t=-0.7C h=-1.0% p=-1.0hPa 404.010 MHz Type=DFM17 ser=22037099 Radiosonde
W4DEX-14D220370992022-12-06 23:18:5537.2262-80.339369673379Clb=5.5m/s Type=DFM17 ser=[BC]22037099 Details on http://radiosondy.info
KG4IFE-1D220370992022-12-06 23:18:5037.2259-80.340582693345Clb=5.9m/s t=-0.2C h=-1.0% p=-1.0hPa 404.010 MHz Type=DFM17 ser=22037099 Radiosonde
W4DEX-14D220370992022-12-06 23:18:4037.2255-80.342387613299Clb=4.9m/s Type=DFM17 ser=[BC]22037099 Details on http://radiosondy.info
W4KZK-14D220370992022-12-06 23:18:3637.2254-80.343171613278Clb=6.3m/s t=0.4C h=-1.0% p=-1.0hPa 404.010 MHz Type=DFM17 ser=22037099 Radiosonde
W4DEX-14D220370992022-12-06 23:18:2537.2252-80.345167613215Clb=5.0m/s Type=DFM17 ser=[BC]22037099 Details on http://radiosondy.info
KG4IFE-1D220370992022-12-06 23:18:1937.2248-80.346365673184Clb=4.6m/s t=0.9C h=-1.0% p=-1.0hPa 404.010 MHz Type=DFM17 ser=22037099 Radiosonde
W4DEX-14D220370992022-12-06 23:18:1037.2246-80.347870653131Clb=7.0m/s Type=DFM17 ser=[BC]22037099 Details on http://radiosondy.info
W4KZK-14D220370992022-12-06 23:18:0337.2244-80.349467613093Clb=6.6m/s t=1.7C h=-1.0% p=-1.0hPa 404.010 MHz Type=DFM17 ser=22037099 Radiosonde
W4DEX-14D220370992022-12-06 23:17:5537.2242-80.350876653049Clb=6.9m/s Type=DFM Details on http://radiosondy.info
KG4IFE-1D220370992022-12-06 23:17:4837.2239-80.352875542991Clb=6.2m/s t=2.4C h=-1.0% p=-1.0hPa 404.010 MHz Type=DFM17 ser=22037099 Radiosonde
W4DEX-14D220370992022-12-06 23:17:4037.2238-80.353894632957Clb=4.7m/s Type=DFM Details on http://radiosondy.info
W4KZK-14D220370992022-12-06 23:17:3037.2235-80.356167572899Clb=5.5m/s t=3.0C h=-1.0% p=-1.0hPa 404.010 MHz Type=DFM17 ser=22037099 Radiosonde
W4DEX-14D220370992022-12-06 23:17:2537.2234-80.356785692878Clb=5.5m/s Type=DFM Details on http://radiosondy.info
KG4IFE-1D220370992022-12-06 23:17:1637.2231-80.358889722834Clb=5.1m/s t=3.4C h=-1.0% p=-1.0hPa 404.010 MHz Type=DFM17 ser=22037099 Radiosonde
W4KZK-14D220370992022-12-06 23:16:5737.2228-80.362579502736Clb=6.2m/s t=4.1C h=-1.0% p=-1.0hPa 404.010 MHz Type=DFM17 ser=22037099 Radiosonde
KG4IFE-1D220370992022-12-06 23:16:4637.2225-80.364881742675Clb=6.0m/s t=4.6C h=-1.0% p=-1.0hPa 404.010 MHz Type=DFM17 ser=22037099 Radiosonde
W4KZK-14D220370992022-12-06 23:16:2437.2221-80.369177522564Clb=6.3m/s t=5.2C h=-1.0% p=-1.0hPa 404.010 MHz Type=DFM17 ser=22037099 Radiosonde
KG4IFE-1D220370992022-12-06 23:16:1537.2217-80.371178742505Clb=6.3m/s t=5.5C h=-1.0% p=-1.0hPa 404.010 MHz Type=DFM17 ser=22037099 Radiosonde
W4KZK-14D220370992022-12-06 23:15:5137.221-80.376190632380Clb=4.2m/s t=6.2C h=-1.0% p=-1.0hPa 404.010 MHz Type=DFM17 ser=22037099 Radiosonde
KG4IFE-1D220370992022-12-06 23:15:4337.2208-80.377683592339Clb=5.3m/s t=6.5C h=-1.0% p=-1.0hPa 404.010 MHz Type=DFM17 ser=22037099 Radiosonde
W4KZK-14D220370992022-12-06 23:15:1837.2199-80.382977592189Clb=5.4m/s t=7.3C h=-1.0% p=-1.0hPa 404.010 MHz Type=DFM17 ser=22037099 Radiosonde
KG4IFE-1D220370992022-12-06 23:15:1237.2197-80.384685592152Clb=4.9m/s t=7.5C h=-1.0% p=-1.0hPa 404.010 MHz Type=DFM17 ser=22037099 Radiosonde
KG4IFE-1D220370992022-12-06 23:14:4137.2186-80.390977651968Clb=6.4m/s t=8.5C h=-1.0% p=-1.0hPa 404.010 MHz Type=DFM17 ser=22037099 Radiosonde